<?xml version="1.0" encoding="UTF-8" standalone="no" ?>
<gpx xmlns="http://www.topografix.com/GPX/1/1" xmlns:xsi="http://www.w3.org/2001/XMLSchema-instance" xsi:schemaLocation="http://www.topografix.com/GPX/1/1 http://www.topografix.com/GPX/1/1/gpx.xsd" version="1.1" creator="VisuGPX - https://www.visugpx.com">
  <metadata>
    <name>Croix de Marlin</name>
    <desc><![CDATA[Rando autour de la Croix de Marlin (Pilat)]]></desc>
  </metadata>
  <trk>
    <name><![CDATA[Croix de Marlin]]></name>
    <trkseg>
      <trkpt lat="45.4926" lon="4.66421">
        <ele>525.59997558594</ele>
        <time>2011-04-25T12:46:02.000Z</time>
      </trkpt>
      <trkpt lat="45.49262" lon="4.66418">
        <ele>525.59997558594</ele>
        <time>2011-04-25T12:46:06.000Z</time>
      </trkpt>
      <trkpt lat="45.49269" lon="4.6641">
        <ele>525.59997558594</ele>
        <time>2011-04-25T12:46:13.000Z</time>
      </trkpt>
      <trkpt lat="45.49274" lon="4.66408">
        <ele>525.40002441406</ele>
        <time>2011-04-25T12:46:17.000Z</time>
      </trkpt>
      <trkpt lat="45.49282" lon="4.66404">
        <ele>525.40002441406</ele>
        <time>2011-04-25T12:46:25.000Z</time>
      </trkpt>
      <trkpt lat="45.49289" lon="4.664">
        <ele>525.40002441406</ele>
        <time>2011-04-25T12:46:33.000Z</time>
      </trkpt>
      <trkpt lat="45.49289" lon="4.664">
        <ele>525.40002441406</ele>
        <time>2011-04-25T12:46:34.000Z</time>
      </trkpt>
      <trkpt lat="45.49291" lon="4.66399">
        <ele>525.40002441406</ele>
        <time>2011-04-25T12:46:36.000Z</time>
      </trkpt>
      <trkpt lat="45.49292" lon="4.66398">
        <ele>525.40002441406</ele>
        <time>2011-04-25T12:46:37.000Z</time>
      </trkpt>
      <trkpt lat="45.49294" lon="4.66397">
        <ele>525.40002441406</ele>
        <time>2011-04-25T12:46:41.000Z</time>
      </trkpt>
      <trkpt lat="45.49309" lon="4.66389">
        <ele>525.59997558594</ele>
        <time>2011-04-25T12:46:58.000Z</time>
      </trkpt>
      <trkpt lat="45.49322" lon="4.66379">
        <ele>526.20001220703</ele>
        <time>2011-04-25T12:47:12.000Z</time>
      </trkpt>
      <trkpt lat="45.49332" lon="4.66357">
        <ele>527.40002441406</ele>
        <time>2011-04-25T12:47:28.000Z</time>
      </trkpt>
      <trkpt lat="45.49344" lon="4.6634">
        <ele>528.79998779297</ele>
        <time>2011-04-25T12:47:44.000Z</time>
      </trkpt>
      <trkpt lat="45.49345" lon="4.66339">
        <ele>528.79998779297</ele>
        <time>2011-04-25T12:47:45.000Z</time>
      </trkpt>
      <trkpt lat="45.49345" lon="4.66339">
        <ele>529</ele>
        <time>2011-04-25T12:47:46.000Z</time>
      </trkpt>
      <trkpt lat="45.49358" lon="4.66322">
        <ele>530.40002441406</ele>
        <time>2011-04-25T12:48:02.000Z</time>
      </trkpt>
      <trkpt lat="45.49366" lon="4.6631">
        <ele>531.59997558594</ele>
        <time>2011-04-25T12:48:14.000Z</time>
      </trkpt>
      <trkpt lat="45.49375" lon="4.66299">
        <ele>532.79998779297</ele>
        <time>2011-04-25T12:48:27.000Z</time>
      </trkpt>
      <trkpt lat="45.49379" lon="4.66292">
        <ele>533.59997558594</ele>
        <time>2011-04-25T12:48:41.000Z</time>
      </trkpt>
      <trkpt lat="45.49382" lon="4.66287">
        <ele>534.20001220703</ele>
        <time>2011-04-25T12:48:45.000Z</time>
      </trkpt>
      <trkpt lat="45.49398" lon="4.66271">
        <ele>536.59997558594</ele>
        <time>2011-04-25T12:48:59.000Z</time>
      </trkpt>
      <trkpt lat="45.49411" lon="4.66258">
        <ele>538.59997558594</ele>
        <time>2011-04-25T12:49:11.000Z</time>
      </trkpt>
      <trkpt lat="45.49419" lon="4.66246">
        <ele>540.40002441406</ele>
        <time>2011-04-25T12:49:24.000Z</time>
      </trkpt>
      <trkpt lat="45.49429" lon="4.66234">
        <ele>542</ele>
        <time>2011-04-25T12:49:39.000Z</time>
      </trkpt>
      <trkpt lat="45.49441" lon="4.66218">
        <ele>544.40002441406</ele>
        <time>2011-04-25T12:49:54.000Z</time>
      </trkpt>
      <trkpt lat="45.49457" lon="4.66202">
        <ele>547.59997558594</ele>
        <time>2011-04-25T12:50:11.000Z</time>
      </trkpt>
      <trkpt lat="45.49464" lon="4.66194">
        <ele>549.40002441406</ele>
        <time>2011-04-25T12:50:26.000Z</time>
      </trkpt>
      <trkpt lat="45.49465" lon="4.66193">
        <ele>549.59997558594</ele>
        <time>2011-04-25T12:50:27.000Z</time>
      </trkpt>
      <trkpt lat="45.49466" lon="4.66192">
        <ele>549.79998779297</ele>
        <time>2011-04-25T12:50:28.000Z</time>
      </trkpt>
      <trkpt lat="45.49466" lon="4.66191">
        <ele>550</ele>
        <time>2011-04-25T12:50:29.000Z</time>
      </trkpt>
      <trkpt lat="45.49473" lon="4.66183">
        <ele>551.79998779297</ele>
        <time>2011-04-25T12:50:44.000Z</time>
      </trkpt>
      <trkpt lat="45.49483" lon="4.66171">
        <ele>554.59997558594</ele>
        <time>2011-04-25T12:50:58.000Z</time>
      </trkpt>
      <trkpt lat="45.495" lon="4.66165">
        <ele>558</ele>
        <time>2011-04-25T12:51:12.000Z</time>
      </trkpt>
      <trkpt lat="45.49502" lon="4.66163">
        <ele>558.40002441406</ele>
        <time>2011-04-25T12:51:14.000Z</time>
      </trkpt>
      <trkpt lat="45.49503" lon="4.66162">
        <ele>558.40002441406</ele>
        <time>2011-04-25T12:51:15.000Z</time>
      </trkpt>
      <trkpt lat="45.49513" lon="4.66155">
        <ele>559.79998779297</ele>
        <time>2011-04-25T12:51:28.000Z</time>
      </trkpt>
      <trkpt lat="45.49527" lon="4.6615">
        <ele>561.40002441406</ele>
        <time>2011-04-25T12:51:42.000Z</time>
      </trkpt>
      <trkpt lat="45.49541" lon="4.66144">
        <ele>563</ele>
        <time>2011-04-25T12:51:55.000Z</time>
      </trkpt>
      <trkpt lat="45.49552" lon="4.66138">
        <ele>564.40002441406</ele>
        <time>2011-04-25T12:52:07.000Z</time>
      </trkpt>
      <trkpt lat="45.49563" lon="4.66134">
        <ele>565.79998779297</ele>
        <time>2011-04-25T12:52:18.000Z</time>
      </trkpt>
      <trkpt lat="45.49574" lon="4.66127">
        <ele>567.40002441406</ele>
        <time>2011-04-25T12:52:31.000Z</time>
      </trkpt>
      <trkpt lat="45.49586" lon="4.66119">
        <ele>569.20001220703</ele>
        <time>2011-04-25T12:52:43.000Z</time>
      </trkpt>
      <trkpt lat="45.49598" lon="4.6611">
        <ele>570.40002441406</ele>
        <time>2011-04-25T12:52:54.000Z</time>
      </trkpt>
      <trkpt lat="45.49603" lon="4.66107">
        <ele>571</ele>
        <time>2011-04-25T12:52:59.000Z</time>
      </trkpt>
      <trkpt lat="45.49618" lon="4.66095">
        <ele>573.40002441406</ele>
        <time>2011-04-25T12:53:13.000Z</time>
      </trkpt>
      <trkpt lat="45.49629" lon="4.66084">
        <ele>575.59997558594</ele>
        <time>2011-04-25T12:53:25.000Z</time>
      </trkpt>
      <trkpt lat="45.49642" lon="4.66073">
        <ele>577.20001220703</ele>
        <time>2011-04-25T12:53:38.000Z</time>
      </trkpt>
      <trkpt lat="45.49653" lon="4.66062">
        <ele>579</ele>
        <time>2011-04-25T12:53:51.000Z</time>
      </trkpt>
      <trkpt lat="45.49667" lon="4.66049">
        <ele>581.20001220703</ele>
        <time>2011-04-25T12:54:05.000Z</time>
      </trkpt>
      <trkpt lat="45.49682" lon="4.6604">
        <ele>582.59997558594</ele>
        <time>2011-04-25T12:54:19.000Z</time>
      </trkpt>
      <trkpt lat="45.49689" lon="4.66035">
        <ele>583.40002441406</ele>
        <time>2011-04-25T12:54:25.000Z</time>
      </trkpt>
      <trkpt lat="45.49702" lon="4.66024">
        <ele>585.40002441406</ele>
        <time>2011-04-25T12:54:39.000Z</time>
      </trkpt>
      <trkpt lat="45.49711" lon="4.66012">
        <ele>587.59997558594</ele>
        <time>2011-04-25T12:54:53.000Z</time>
      </trkpt>
      <trkpt lat="45.49714" lon="4.66008">
        <ele>588.20001220703</ele>
        <time>2011-04-25T12:54:57.000Z</time>
      </trkpt>
      <trkpt lat="45.49725" lon="4.65999">
        <ele>590.20001220703</ele>
        <time>2011-04-25T12:55:11.000Z</time>
      </trkpt>
      <trkpt lat="45.49737" lon="4.65991">
        <ele>591.79998779297</ele>
        <time>2011-04-25T12:55:23.000Z</time>
      </trkpt>
      <trkpt lat="45.49747" lon="4.65984">
        <ele>593.59997558594</ele>
        <time>2011-04-25T12:55:35.000Z</time>
      </trkpt>
      <trkpt lat="45.49759" lon="4.65973">
        <ele>595.59997558594</ele>
        <time>2011-04-25T12:55:47.000Z</time>
      </trkpt>
      <trkpt lat="45.49766" lon="4.65965">
        <ele>596.59997558594</ele>
        <time>2011-04-25T12:55:55.000Z</time>
      </trkpt>
      <trkpt lat="45.49781" lon="4.65958">
        <ele>598</ele>
        <time>2011-04-25T12:56:09.000Z</time>
      </trkpt>
      <trkpt lat="45.49796" lon="4.6595">
        <ele>599.40002441406</ele>
        <time>2011-04-25T12:56:23.000Z</time>
      </trkpt>
      <trkpt lat="45.49799" lon="4.65947">
        <ele>600</ele>
        <time>2011-04-25T12:56:27.000Z</time>
      </trkpt>
      <trkpt lat="45.49817" lon="4.65931">
        <ele>602.59997558594</ele>
        <time>2011-04-25T12:56:43.000Z</time>
      </trkpt>
      <trkpt lat="45.49821" lon="4.65925">
        <ele>603.40002441406</ele>
        <time>2011-04-25T12:56:48.000Z</time>
      </trkpt>
      <trkpt lat="45.49828" lon="4.65904">
        <ele>605.20001220703</ele>
        <time>2011-04-25T12:57:02.000Z</time>
      </trkpt>
      <trkpt lat="45.49829" lon="4.65901">
        <ele>605.40002441406</ele>
        <time>2011-04-25T12:57:05.000Z</time>
      </trkpt>
      <trkpt lat="45.49836" lon="4.65869">
        <ele>606.40002441406</ele>
        <time>2011-04-25T12:57:20.000Z</time>
      </trkpt>
      <trkpt lat="45.49843" lon="4.65852">
        <ele>606.20001220703</ele>
        <time>2011-04-25T12:57:33.000Z</time>
      </trkpt>
      <trkpt lat="45.49844" lon="4.65846">
        <ele>606.40002441406</ele>
        <time>2011-04-25T12:57:40.000Z</time>
      </trkpt>
      <trkpt lat="45.49845" lon="4.65841">
        <ele>606.59997558594</ele>
        <time>2011-04-25T12:57:44.000Z</time>
      </trkpt>
      <trkpt lat="45.49848" lon="4.65831">
        <ele>606.59997558594</ele>
        <time>2011-04-25T12:57:49.000Z</time>
      </trkpt>
      <trkpt lat="45.49851" lon="4.6582">
        <ele>607.20001220703</ele>
        <time>2011-04-25T12:57:53.000Z</time>
      </trkpt>
      <trkpt lat="45.4986" lon="4.658">
        <ele>607.79998779297</ele>
        <time>2011-04-25T12:58:06.000Z</time>
      </trkpt>
      <trkpt lat="45.4986" lon="4.65795">
        <ele>608</ele>
        <time>2011-04-25T12:58:08.000Z</time>
      </trkpt>
      <trkpt lat="45.49864" lon="4.65783">
        <ele>608.59997558594</ele>
        <time>2011-04-25T12:58:13.000Z</time>
      </trkpt>
      <trkpt lat="45.49871" lon="4.65767">
        <ele>609</ele>
        <time>2011-04-25T12:58:25.000Z</time>
      </trkpt>
      <trkpt lat="45.49885" lon="4.65741">
        <ele>609.79998779297</ele>
        <time>2011-04-25T12:58:44.000Z</time>
      </trkpt>
      <trkpt lat="45.49889" lon="4.65738">
        <ele>610</ele>
        <time>2011-04-25T12:59:02.000Z</time>
      </trkpt>
      <trkpt lat="45.49889" lon="4.65738">
        <ele>610</ele>
        <time>2011-04-25T12:59:21.000Z</time>
      </trkpt>
      <trkpt lat="45.49883" lon="4.65743">
        <ele>609.79998779297</ele>
        <time>2011-04-25T12:59:26.000Z</time>
      </trkpt>
      <trkpt lat="45.49878" lon="4.65749">
        <ele>609.59997558594</ele>
        <time>2011-04-25T12:59:32.000Z</time>
      </trkpt>
      <trkpt lat="45.49874" lon="4.65747">
        <ele>610.40002441406</ele>
        <time>2011-04-25T12:59:37.000Z</time>
      </trkpt>
      <trkpt lat="45.49872" lon="4.65744">
        <ele>610.79998779297</ele>
        <time>2011-04-25T12:59:42.000Z</time>
      </trkpt>
      <trkpt lat="45.49864" lon="4.6572">
        <ele>613.79998779297</ele>
        <time>2011-04-25T12:59:59.000Z</time>
      </trkpt>
      <trkpt lat="45.49855" lon="4.65708">
        <ele>615.79998779297</ele>
        <time>2011-04-25T13:00:16.000Z</time>
      </trkpt>
      <trkpt lat="45.49846" lon="4.65692">
        <ele>617.79998779297</ele>
        <time>2011-04-25T13:00:28.000Z</time>
      </trkpt>
      <trkpt lat="45.49839" lon="4.65675">
        <ele>619.79998779297</ele>
        <time>2011-04-25T13:00:40.000Z</time>
      </trkpt>
      <trkpt lat="45.49836" lon="4.65668">
        <ele>620.59997558594</ele>
        <time>2011-04-25T13:00:54.000Z</time>
      </trkpt>
      <trkpt lat="45.49834" lon="4.65659">
        <ele>621.59997558594</ele>
        <time>2011-04-25T13:01:04.000Z</time>
      </trkpt>
      <trkpt lat="45.49833" lon="4.65656">
        <ele>621.79998779297</ele>
        <time>2011-04-25T13:01:07.000Z</time>
      </trkpt>
      <trkpt lat="45.49832" lon="4.65655">
        <ele>621.79998779297</ele>
        <time>2011-04-25T13:01:08.000Z</time>
      </trkpt>
      <trkpt lat="45.49828" lon="4.65645">
        <ele>622.40002441406</ele>
        <time>2011-04-25T13:01:17.000Z</time>
      </trkpt>
      <trkpt lat="45.49828" lon="4.65645">
        <ele>622.59997558594</ele>
        <time>2011-04-25T13:01:18.000Z</time>
      </trkpt>
      <trkpt lat="45.49821" lon="4.65627">
        <ele>623.40002441406</ele>
        <time>2011-04-25T13:01:34.000Z</time>
      </trkpt>
      <trkpt lat="45.49813" lon="4.65609">
        <ele>624.40002441406</ele>
        <time>2011-04-25T13:01:53.000Z</time>
      </trkpt>
      <trkpt lat="45.49807" lon="4.65593">
        <ele>625.20001220703</ele>
        <time>2011-04-25T13:02:05.000Z</time>
      </trkpt>
      <trkpt lat="45.49806" lon="4.65577">
        <ele>626.59997558594</ele>
        <time>2011-04-25T13:02:18.000Z</time>
      </trkpt>
      <trkpt lat="45.49808" lon="4.65558">
        <ele>628.79998779297</ele>
        <time>2011-04-25T13:02:32.000Z</time>
      </trkpt>
      <trkpt lat="45.49809" lon="4.65555">
        <ele>629.20001220703</ele>
        <time>2011-04-25T13:02:34.000Z</time>
      </trkpt>
      <trkpt lat="45.49818" lon="4.65534">
        <ele>632</ele>
        <time>2011-04-25T13:02:52.000Z</time>
      </trkpt>
      <trkpt lat="45.49823" lon="4.65512">
        <ele>634.40002441406</ele>
        <time>2011-04-25T13:03:09.000Z</time>
      </trkpt>
      <trkpt lat="45.49828" lon="4.65496">
        <ele>635.79998779297</ele>
        <time>2011-04-25T13:03:21.000Z</time>
      </trkpt>
      <trkpt lat="45.49832" lon="4.6547">
        <ele>637</ele>
        <time>2011-04-25T13:03:38.000Z</time>
      </trkpt>
      <trkpt lat="45.4983" lon="4.65444">
        <ele>638</ele>
        <time>2011-04-25T13:03:54.000Z</time>
      </trkpt>
      <trkpt lat="45.49827" lon="4.65421">
        <ele>639</ele>
        <time>2011-04-25T13:04:09.000Z</time>
      </trkpt>
      <trkpt lat="45.49826" lon="4.65419">
        <ele>639</ele>
        <time>2011-04-25T13:04:11.000Z</time>
      </trkpt>
      <trkpt lat="45.49825" lon="4.65409">
        <ele>639.40002441406</ele>
        <time>2011-04-25T13:04:16.000Z</time>
      </trkpt>
      <trkpt lat="45.49821" lon="4.65374">
        <ele>640.20001220703</ele>
        <time>2011-04-25T13:04:35.000Z</time>
      </trkpt>
      <trkpt lat="45.49818" lon="4.65342">
        <ele>641.40002441406</ele>
        <time>2011-04-25T13:04:50.000Z</time>
      </trkpt>
      <trkpt lat="45.49813" lon="4.65311">
        <ele>641.40002441406</ele>
        <time>2011-04-25T13:05:05.000Z</time>
      </trkpt>
      <trkpt lat="45.49812" lon="4.65301">
        <ele>641.20001220703</ele>
        <time>2011-04-25T13:05:16.000Z</time>
      </trkpt>
      <trkpt lat="45.49812" lon="4.65297">
        <ele>641.20001220703</ele>
        <time>2011-04-25T13:05:18.000Z</time>
      </trkpt>
      <trkpt lat="45.49807" lon="4.65284">
        <ele>641.40002441406</ele>
        <time>2011-04-25T13:05:28.000Z</time>
      </trkpt>
      <trkpt lat="45.49797" lon="4.65262">
        <ele>642</ele>
        <time>2011-04-25T13:05:41.000Z</time>
      </trkpt>
      <trkpt lat="45.49789" lon="4.65241">
        <ele>642.40002441406</ele>
        <time>2011-04-25T13:05:53.000Z</time>
      </trkpt>
      <trkpt lat="45.49778" lon="4.65215">
        <ele>643</ele>
        <time>2011-04-25T13:06:11.000Z</time>
      </trkpt>
      <trkpt lat="45.49772" lon="4.65208">
        <ele>643.40002441406</ele>
        <time>2011-04-25T13:06:16.000Z</time>
      </trkpt>
      <trkpt lat="45.49759" lon="4.6522">
        <ele>645.59997558594</ele>
        <time>2011-04-25T13:06:29.000Z</time>
      </trkpt>
      <trkpt lat="45.49748" lon="4.6523">
        <ele>647</ele>
        <time>2011-04-25T13:06:40.000Z</time>
      </trkpt>
      <trkpt lat="45.49739" lon="4.65239">
        <ele>647</ele>
        <time>2011-04-25T13:06:48.000Z</time>
      </trkpt>
      <trkpt lat="45.49736" lon="4.65241">
        <ele>647</ele>
        <time>2011-04-25T13:06:52.000Z</time>
      </trkpt>
      <trkpt lat="45.49723" lon="4.65258">
        <ele>646.59997558594</ele>
        <time>2011-04-25T13:07:05.000Z</time>
      </trkpt>
      <trkpt lat="45.49721" lon="4.65261">
        <ele>646.59997558594</ele>
        <time>2011-04-25T13:07:07.000Z</time>
      </trkpt>
      <trkpt lat="45.4972" lon="4.65267">
        <ele>646.59997558594</ele>
        <time>2011-04-25T13:07:11.000Z</time>
      </trkpt>
      <trkpt lat="45.49721" lon="4.65279">
        <ele>646.59997558594</ele>
        <time>2011-04-25T13:07:20.000Z</time>
      </trkpt>
      <trkpt lat="45.49723" lon="4.65292">
        <ele>646.79998779297</ele>
        <time>2011-04-25T13:07:34.000Z</time>
      </trkpt>
      <trkpt lat="45.49723" lon="4.65289">
        <ele>646.79998779297</ele>
        <time>2011-04-25T13:08:02.000Z</time>
      </trkpt>
      <trkpt lat="45.49722" lon="4.65285">
        <ele>646.79998779297</ele>
        <time>2011-04-25T13:08:13.000Z</time>
      </trkpt>
      <trkpt lat="45.49722" lon="4.65282">
        <ele>646.59997558594</ele>
        <time>2011-04-25T13:08:24.000Z</time>
      </trkpt>
      <trkpt lat="45.49722" lon="4.65282">
        <ele>646.59997558594</ele>
        <time>2011-04-25T13:08:57.000Z</time>
      </trkpt>
      <trkpt lat="45.49722" lon="4.65281">
        <ele>646.59997558594</ele>
        <time>2011-04-25T13:09:31.000Z</time>
      </trkpt>
      <trkpt lat="45.49722" lon="4.65281">
        <ele>646.59997558594</ele>
        <time>2011-04-25T13:10:06.000Z</time>
      </trkpt>
      <trkpt lat="45.49722" lon="4.65281">
        <ele>646.59997558594</ele>
        <time>2011-04-25T13:10:23.000Z</time>
      </trkpt>
      <trkpt lat="45.49722" lon="4.65281">
        <ele>646.59997558594</ele>
        <time>2011-04-25T13:10:27.000Z</time>
      </trkpt>
      <trkpt lat="45.49722" lon="4.65281">
        <ele>646.59997558594</ele>
        <time>2011-04-25T13:10:28.000Z</time>
      </trkpt>
      <trkpt lat="45.49722" lon="4.65281">
        <ele>646.59997558594</ele>
        <time>2011-04-25T13:10:30.000Z</time>
      </trkpt>
      <trkpt lat="45.49719" lon="4.65278">
        <ele>646.59997558594</ele>
        <time>2011-04-25T13:10:44.000Z</time>
      </trkpt>
      <trkpt lat="45.49719" lon="4.65278">
        <ele>646.59997558594</ele>
        <time>2011-04-25T13:11:08.000Z</time>
      </trkpt>
      <trkpt lat="45.49719" lon="4.65276">
        <ele>646.40002441406</ele>
        <time>2011-04-25T13:11:10.000Z</time>
      </trkpt>
      <trkpt lat="45.49719" lon="4.65271">
        <ele>646.40002441406</ele>
        <time>2011-04-25T13:11:14.000Z</time>
      </trkpt>
      <trkpt lat="45.49721" lon="4.65258">
        <ele>646.59997558594</ele>
        <time>2011-04-25T13:11:21.000Z</time>
      </trkpt>
      <trkpt lat="45.4974" lon="4.65236">
        <ele>647</ele>
        <time>2011-04-25T13:11:40.000Z</time>
      </trkpt>
      <trkpt lat="45.4976" lon="4.65221">
        <ele>645.59997558594</ele>
        <time>2011-04-25T13:11:56.000Z</time>
      </trkpt>
      <trkpt lat="45.49773" lon="4.65209">
        <ele>643.40002441406</ele>
        <time>2011-04-25T13:12:09.000Z</time>
      </trkpt>
      <trkpt lat="45.49775" lon="4.65208">
        <ele>643</ele>
        <time>2011-04-25T13:12:11.000Z</time>
      </trkpt>
      <trkpt lat="45.49769" lon="4.65181">
        <ele>643</ele>
        <time>2011-04-25T13:12:25.000Z</time>
      </trkpt>
      <trkpt lat="45.49764" lon="4.65161">
        <ele>642.79998779297</ele>
        <time>2011-04-25T13:12:37.000Z</time>
      </trkpt>
      <trkpt lat="45.49754" lon="4.65129">
        <ele>642.79998779297</ele>
        <time>2011-04-25T13:12:54.000Z</time>
      </trkpt>
      <trkpt lat="45.49754" lon="4.65127">
        <ele>642.79998779297</ele>
        <time>2011-04-25T13:12:57.000Z</time>
      </trkpt>
      <trkpt lat="45.49753" lon="4.65122">
        <ele>642.79998779297</ele>
        <time>2011-04-25T13:13:14.000Z</time>
      </trkpt>
      <trkpt lat="45.49752" lon="4.6512">
        <ele>642.79998779297</ele>
        <time>2011-04-25T13:13:26.000Z</time>
      </trkpt>
      <trkpt lat="45.49751" lon="4.65113">
        <ele>642.79998779297</ele>
        <time>2011-04-25T13:13:32.000Z</time>
      </trkpt>
      <trkpt lat="45.49748" lon="4.65101">
        <ele>642.59997558594</ele>
        <time>2011-04-25T13:13:38.000Z</time>
      </trkpt>
      <trkpt lat="45.49746" lon="4.65095">
        <ele>642.20001220703</ele>
        <time>2011-04-25T13:13:44.000Z</time>
      </trkpt>
      <trkpt lat="45.49742" lon="4.65079">
        <ele>641.59997558594</ele>
        <time>2011-04-25T13:13:51.000Z</time>
      </trkpt>
      <trkpt lat="45.49735" lon="4.65055">
        <ele>641</ele>
        <time>2011-04-25T13:14:05.000Z</time>
      </trkpt>
      <trkpt lat="45.49726" lon="4.65022">
        <ele>640.40002441406</ele>
        <time>2011-04-25T13:14:23.000Z</time>
      </trkpt>
      <trkpt lat="45.49717" lon="4.64996">
        <ele>640.59997558594</ele>
        <time>2011-04-25T13:14:37.000Z</time>
      </trkpt>
      <trkpt lat="45.49715" lon="4.64984">
        <ele>640.79998779297</ele>
        <time>2011-04-25T13:14:46.000Z</time>
      </trkpt>
      <trkpt lat="45.49714" lon="4.64979">
        <ele>641</ele>
        <time>2011-04-25T13:14:50.000Z</time>
      </trkpt>
      <trkpt lat="45.49713" lon="4.64955">
        <ele>641.40002441406</ele>
        <time>2011-04-25T13:15:04.000Z</time>
      </trkpt>
      <trkpt lat="45.49711" lon="4.64936">
        <ele>641.79998779297</ele>
        <time>2011-04-25T13:15:18.000Z</time>
      </trkpt>
      <trkpt lat="45.4971" lon="4.64916">
        <ele>642.20001220703</ele>
        <time>2011-04-25T13:15:30.000Z</time>
      </trkpt>
      <trkpt lat="45.49704" lon="4.64889">
        <ele>643.20001220703</ele>
        <time>2011-04-25T13:15:44.000Z</time>
      </trkpt>
      <trkpt lat="45.49698" lon="4.64873">
        <ele>644.20001220703</ele>
        <time>2011-04-25T13:15:57.000Z</time>
      </trkpt>
      <trkpt lat="45.49698" lon="4.64873">
        <ele>644.20001220703</ele>
        <time>2011-04-25T13:16:20.000Z</time>
      </trkpt>
      <trkpt lat="45.49698" lon="4.64873">
        <ele>644.20001220703</ele>
        <time>2011-04-25T13:17:04.000Z</time>
      </trkpt>
      <trkpt lat="45.49699" lon="4.64867">
        <ele>644.20001220703</ele>
        <time>2011-04-25T13:17:26.000Z</time>
      </trkpt>
      <trkpt lat="45.49692" lon="4.64837">
        <ele>645.79998779297</ele>
        <time>2011-04-25T13:17:41.000Z</time>
      </trkpt>
      <trkpt lat="45.49686" lon="4.64818">
        <ele>646.59997558594</ele>
        <time>2011-04-25T13:17:53.000Z</time>
      </trkpt>
      <trkpt lat="45.49679" lon="4.6479">
        <ele>647.79998779297</ele>
        <time>2011-04-25T13:18:08.000Z</time>
      </trkpt>
      <trkpt lat="45.49667" lon="4.64767">
        <ele>650.59997558594</ele>
        <time>2011-04-25T13:18:22.000Z</time>
      </trkpt>
      <trkpt lat="45.49667" lon="4.64765">
        <ele>650.79998779297</ele>
        <time>2011-04-25T13:18:23.000Z</time>
      </trkpt>
      <trkpt lat="45.49662" lon="4.64746">
        <ele>650.40002441406</ele>
        <time>2011-04-25T13:18:35.000Z</time>
      </trkpt>
      <trkpt lat="45.49657" lon="4.64725">
        <ele>648.59997558594</ele>
        <time>2011-04-25T13:18:50.000Z</time>
      </trkpt>
      <trkpt lat="45.49656" lon="4.64716">
        <ele>648</ele>
        <time>2011-04-25T13:19:04.000Z</time>
      </trkpt>
      <trkpt lat="45.49656" lon="4.64716">
        <ele>648</ele>
        <time>2011-04-25T13:19:05.000Z</time>
      </trkpt>
      <trkpt lat="45.49654" lon="4.64716">
        <ele>648</ele>
        <time>2011-04-25T13:19:23.000Z</time>
      </trkpt>
      <trkpt lat="45.49655" lon="4.64714">
        <ele>647.79998779297</ele>
        <time>2011-04-25T13:19:43.000Z</time>
      </trkpt>
      <trkpt lat="45.49655" lon="4.64714">
        <ele>647.79998779297</ele>
        <time>2011-04-25T13:20:15.000Z</time>
      </trkpt>
      <trkpt lat="45.49655" lon="4.64714">
        <ele>647.79998779297</ele>
        <time>2011-04-25T13:20:30.000Z</time>
      </trkpt>
      <trkpt lat="45.49658" lon="4.64716">
        <ele>648</ele>
        <time>2011-04-25T13:20:35.000Z</time>
      </trkpt>
      <trkpt lat="45.49661" lon="4.64715">
        <ele>648.20001220703</ele>
        <time>2011-04-25T13:20:41.000Z</time>
      </trkpt>
      <trkpt lat="45.49652" lon="4.6472">
        <ele>648</ele>
        <time>2011-04-25T13:20:55.000Z</time>
      </trkpt>
      <trkpt lat="45.49646" lon="4.64726">
        <ele>648.20001220703</ele>
        <time>2011-04-25T13:21:03.000Z</time>
      </trkpt>
      <trkpt lat="45.49639" lon="4.64722">
        <ele>647.59997558594</ele>
        <time>2011-04-25T13:21:14.000Z</time>
      </trkpt>
      <trkpt lat="45.49639" lon="4.64717">
        <ele>647.40002441406</ele>
        <time>2011-04-25T13:21:19.000Z</time>
      </trkpt>
      <trkpt lat="45.49639" lon="4.64707">
        <ele>646.79998779297</ele>
        <time>2011-04-25T13:21:32.000Z</time>
      </trkpt>
      <trkpt lat="45.49639" lon="4.64707">
        <ele>646.79998779297</ele>
        <time>2011-04-25T13:21:56.000Z</time>
      </trkpt>
      <trkpt lat="45.49639" lon="4.64707">
        <ele>646.79998779297</ele>
        <time>2011-04-25T13:22:31.000Z</time>
      </trkpt>
      <trkpt lat="45.4964" lon="4.64707">
        <ele>646.79998779297</ele>
        <time>2011-04-25T13:23:00.000Z</time>
      </trkpt>
      <trkpt lat="45.49639" lon="4.64707">
        <ele>646.79998779297</ele>
        <time>2011-04-25T13:23:32.000Z</time>
      </trkpt>
      <trkpt lat="45.49638" lon="4.64713">
        <ele>647.20001220703</ele>
        <time>2011-04-25T13:23:52.000Z</time>
      </trkpt>
      <trkpt lat="45.49638" lon="4.64715">
        <ele>647.20001220703</ele>
        <time>2011-04-25T13:23:53.000Z</time>
      </trkpt>
      <trkpt lat="45.49643" lon="4.64728">
        <ele>648.20001220703</ele>
        <time>2011-04-25T13:24:06.000Z</time>
      </trkpt>
      <trkpt lat="45.49647" lon="4.64723">
        <ele>648.20001220703</ele>
        <time>2011-04-25T13:24:24.000Z</time>
      </trkpt>
      <trkpt lat="45.49642" lon="4.64726">
        <ele>648</ele>
        <time>2011-04-25T13:24:36.000Z</time>
      </trkpt>
      <trkpt lat="45.49642" lon="4.64726">
        <ele>648</ele>
        <time>2011-04-25T13:24:55.000Z</time>
      </trkpt>
      <trkpt lat="45.4964" lon="4.64729">
        <ele>648</ele>
        <time>2011-04-25T13:25:12.000Z</time>
      </trkpt>
      <trkpt lat="45.49636" lon="4.6473">
        <ele>648</ele>
        <time>2011-04-25T13:25:21.000Z</time>
      </trkpt>
      <trkpt lat="45.49616" lon="4.64737">
        <ele>647.20001220703</ele>
        <time>2011-04-25T13:25:37.000Z</time>
      </trkpt>
      <trkpt lat="45.49614" lon="4.64738">
        <ele>647.20001220703</ele>
        <time>2011-04-25T13:25:41.000Z</time>
      </trkpt>
      <trkpt lat="45.49608" lon="4.64742">
        <ele>647</ele>
        <time>2011-04-25T13:25:46.000Z</time>
      </trkpt>
      <trkpt lat="45.49603" lon="4.64742">
        <ele>646.79998779297</ele>
        <time>2011-04-25T13:25:51.000Z</time>
      </trkpt>
      <trkpt lat="45.49596" lon="4.64747">
        <ele>646.59997558594</ele>
        <time>2011-04-25T13:26:02.000Z</time>
      </trkpt>
      <trkpt lat="45.49593" lon="4.6475">
        <ele>646.40002441406</ele>
        <time>2011-04-25T13:26:05.000Z</time>
      </trkpt>
      <trkpt lat="45.49575" lon="4.64753">
        <ele>644.20001220703</ele>
        <time>2011-04-25T13:26:19.000Z</time>
      </trkpt>
      <trkpt lat="45.49563" lon="4.64742">
        <ele>642.20001220703</ele>
        <time>2011-04-25T13:26:31.000Z</time>
      </trkpt>
      <trkpt lat="45.49546" lon="4.64734">
        <ele>639.20001220703</ele>
        <time>2011-04-25T13:26:48.000Z</time>
      </trkpt>
      <trkpt lat="45.49534" lon="4.6472">
        <ele>636.79998779297</ele>
        <time>2011-04-25T13:27:02.000Z</time>
      </trkpt>
      <trkpt lat="45.49519" lon="4.64706">
        <ele>634</ele>
        <time>2011-04-25T13:27:16.000Z</time>
      </trkpt>
      <trkpt lat="45.49506" lon="4.64691">
        <ele>631.40002441406</ele>
        <time>2011-04-25T13:27:28.000Z</time>
      </trkpt>
      <trkpt lat="45.49495" lon="4.64679">
        <ele>629.20001220703</ele>
        <time>2011-04-25T13:27:37.000Z</time>
      </trkpt>
      <trkpt lat="45.49487" lon="4.64668">
        <ele>627.59997558594</ele>
        <time>2011-04-25T13:27:43.000Z</time>
      </trkpt>
      <trkpt lat="45.49469" lon="4.64664">
        <ele>623.59997558594</ele>
        <time>2011-04-25T13:27:56.000Z</time>
      </trkpt>
      <trkpt lat="45.49455" lon="4.64661">
        <ele>620.59997558594</ele>
        <time>2011-04-25T13:28:09.000Z</time>
      </trkpt>
      <trkpt lat="45.49442" lon="4.64661">
        <ele>618.20001220703</ele>
        <time>2011-04-25T13:28:25.000Z</time>
      </trkpt>
      <trkpt lat="45.49441" lon="4.64661">
        <ele>618.20001220703</ele>
        <time>2011-04-25T13:28:28.000Z</time>
      </trkpt>
      <trkpt lat="45.49426" lon="4.64663">
        <ele>615.79998779297</ele>
        <time>2011-04-25T13:28:39.000Z</time>
      </trkpt>
      <trkpt lat="45.49425" lon="4.64663">
        <ele>615.59997558594</ele>
        <time>2011-04-25T13:28:40.000Z</time>
      </trkpt>
      <trkpt lat="45.4941" lon="4.64661">
        <ele>612.40002441406</ele>
        <time>2011-04-25T13:28:51.000Z</time>
      </trkpt>
      <trkpt lat="45.49401" lon="4.64659">
        <ele>610</ele>
        <time>2011-04-25T13:28:58.000Z</time>
      </trkpt>
      <trkpt lat="45.49397" lon="4.6466">
        <ele>609.40002441406</ele>
        <time>2011-04-25T13:29:01.000Z</time>
      </trkpt>
      <trkpt lat="45.49378" lon="4.64655">
        <ele>604.79998779297</ele>
        <time>2011-04-25T13:29:15.000Z</time>
      </trkpt>
      <trkpt lat="45.49376" lon="4.64655">
        <ele>604.20001220703</ele>
        <time>2011-04-25T13:29:17.000Z</time>
      </trkpt>
      <trkpt lat="45.49368" lon="4.64656">
        <ele>603</ele>
        <time>2011-04-25T13:29:22.000Z</time>
      </trkpt>
      <trkpt lat="45.49353" lon="4.64654">
        <ele>599.59997558594</ele>
        <time>2011-04-25T13:29:36.000Z</time>
      </trkpt>
      <trkpt lat="45.49351" lon="4.64655">
        <ele>599.40002441406</ele>
        <time>2011-04-25T13:29:38.000Z</time>
      </trkpt>
      <trkpt lat="45.49344" lon="4.64651">
        <ele>597.40002441406</ele>
        <time>2011-04-25T13:29:44.000Z</time>
      </trkpt>
      <trkpt lat="45.49342" lon="4.6465">
        <ele>596.79998779297</ele>
        <time>2011-04-25T13:29:46.000Z</time>
      </trkpt>
      <trkpt lat="45.49334" lon="4.64651">
        <ele>595.40002441406</ele>
        <time>2011-04-25T13:29:53.000Z</time>
      </trkpt>
      <trkpt lat="45.49314" lon="4.64654">
        <ele>593</ele>
        <time>2011-04-25T13:30:07.000Z</time>
      </trkpt>
      <trkpt lat="45.493" lon="4.64659">
        <ele>592</ele>
        <time>2011-04-25T13:30:21.000Z</time>
      </trkpt>
      <trkpt lat="45.49277" lon="4.64665">
        <ele>589.40002441406</ele>
        <time>2011-04-25T13:30:36.000Z</time>
      </trkpt>
      <trkpt lat="45.49257" lon="4.64666">
        <ele>586.79998779297</ele>
        <time>2011-04-25T13:30:51.000Z</time>
      </trkpt>
      <trkpt lat="45.49239" lon="4.64668">
        <ele>586</ele>
        <time>2011-04-25T13:31:05.000Z</time>
      </trkpt>
      <trkpt lat="45.49234" lon="4.64667">
        <ele>586</ele>
        <time>2011-04-25T13:31:10.000Z</time>
      </trkpt>
      <trkpt lat="45.4923" lon="4.64662">
        <ele>585.59997558594</ele>
        <time>2011-04-25T13:31:22.000Z</time>
      </trkpt>
      <trkpt lat="45.49228" lon="4.64654">
        <ele>584.40002441406</ele>
        <time>2011-04-25T13:31:37.000Z</time>
      </trkpt>
      <trkpt lat="45.49229" lon="4.64651">
        <ele>584.20001220703</ele>
        <time>2011-04-25T13:31:40.000Z</time>
      </trkpt>
      <trkpt lat="45.49231" lon="4.64644">
        <ele>583.20001220703</ele>
        <time>2011-04-25T13:31:53.000Z</time>
      </trkpt>
      <trkpt lat="45.4923" lon="4.64643">
        <ele>583.20001220703</ele>
        <time>2011-04-25T13:32:20.000Z</time>
      </trkpt>
      <trkpt lat="45.49229" lon="4.64644">
        <ele>583.20001220703</ele>
        <time>2011-04-25T13:32:38.000Z</time>
      </trkpt>
      <trkpt lat="45.4923" lon="4.64644">
        <ele>583.20001220703</ele>
        <time>2011-04-25T13:32:59.000Z</time>
      </trkpt>
      <trkpt lat="45.49229" lon="4.64643">
        <ele>583.20001220703</ele>
        <time>2011-04-25T13:33:10.000Z</time>
      </trkpt>
      <trkpt lat="45.49224" lon="4.64633">
        <ele>581.79998779297</ele>
        <time>2011-04-25T13:33:17.000Z</time>
      </trkpt>
      <trkpt lat="45.49218" lon="4.6462">
        <ele>580</ele>
        <time>2011-04-25T13:33:26.000Z</time>
      </trkpt>
      <trkpt lat="45.49212" lon="4.64594">
        <ele>576.40002441406</ele>
        <time>2011-04-25T13:33:35.000Z</time>
      </trkpt>
      <trkpt lat="45.49208" lon="4.64582">
        <ele>574.59997558594</ele>
        <time>2011-04-25T13:33:48.000Z</time>
      </trkpt>
      <trkpt lat="45.49205" lon="4.64578">
        <ele>573.79998779297</ele>
        <time>2011-04-25T13:33:58.000Z</time>
      </trkpt>
      <trkpt lat="45.49204" lon="4.64577">
        <ele>573.59997558594</ele>
        <time>2011-04-25T13:33:59.000Z</time>
      </trkpt>
      <trkpt lat="45.49178" lon="4.64556">
        <ele>569</ele>
        <time>2011-04-25T13:34:14.000Z</time>
      </trkpt>
      <trkpt lat="45.49161" lon="4.64542">
        <ele>566.20001220703</ele>
        <time>2011-04-25T13:34:27.000Z</time>
      </trkpt>
      <trkpt lat="45.49146" lon="4.64529">
        <ele>564.40002441406</ele>
        <time>2011-04-25T13:34:40.000Z</time>
      </trkpt>
      <trkpt lat="45.49134" lon="4.64515">
        <ele>562.40002441406</ele>
        <time>2011-04-25T13:34:50.000Z</time>
      </trkpt>
      <trkpt lat="45.4913" lon="4.64508">
        <ele>561.20001220703</ele>
        <time>2011-04-25T13:34:57.000Z</time>
      </trkpt>
      <trkpt lat="45.49123" lon="4.64495">
        <ele>558.59997558594</ele>
        <time>2011-04-25T13:35:07.000Z</time>
      </trkpt>
      <trkpt lat="45.49123" lon="4.64495">
        <ele>558.59997558594</ele>
        <time>2011-04-25T13:35:08.000Z</time>
      </trkpt>
      <trkpt lat="45.49118" lon="4.64483">
        <ele>556.20001220703</ele>
        <time>2011-04-25T13:35:15.000Z</time>
      </trkpt>
      <trkpt lat="45.49117" lon="4.64482">
        <ele>555.79998779297</ele>
        <time>2011-04-25T13:35:17.000Z</time>
      </trkpt>
      <trkpt lat="45.49114" lon="4.64477">
        <ele>555</ele>
        <time>2011-04-25T13:35:31.000Z</time>
      </trkpt>
      <trkpt lat="45.49094" lon="4.6444">
        <ele>548.40002441406</ele>
        <time>2011-04-25T13:35:45.000Z</time>
      </trkpt>
      <trkpt lat="45.49092" lon="4.64436">
        <ele>547.79998779297</ele>
        <time>2011-04-25T13:35:47.000Z</time>
      </trkpt>
      <trkpt lat="45.4908" lon="4.64407">
        <ele>543.79998779297</ele>
        <time>2011-04-25T13:36:01.000Z</time>
      </trkpt>
      <trkpt lat="45.49082" lon="4.64392">
        <ele>541</ele>
        <time>2011-04-25T13:36:11.000Z</time>
      </trkpt>
      <trkpt lat="45.49081" lon="4.64359">
        <ele>535.40002441406</ele>
        <time>2011-04-25T13:36:26.000Z</time>
      </trkpt>
      <trkpt lat="45.49077" lon="4.64342">
        <ele>532.79998779297</ele>
        <time>2011-04-25T13:36:41.000Z</time>
      </trkpt>
      <trkpt lat="45.49076" lon="4.64339">
        <ele>532.59997558594</ele>
        <time>2011-04-25T13:36:42.000Z</time>
      </trkpt>
      <trkpt lat="45.49073" lon="4.6433">
        <ele>531</ele>
        <time>2011-04-25T13:36:46.000Z</time>
      </trkpt>
      <trkpt lat="45.49069" lon="4.64315">
        <ele>528.20001220703</ele>
        <time>2011-04-25T13:36:58.000Z</time>
      </trkpt>
      <trkpt lat="45.49065" lon="4.64304">
        <ele>526.40002441406</ele>
        <time>2011-04-25T13:37:04.000Z</time>
      </trkpt>
      <trkpt lat="45.49058" lon="4.64281">
        <ele>522</ele>
        <time>2011-04-25T13:37:15.000Z</time>
      </trkpt>
      <trkpt lat="45.49045" lon="4.64251">
        <ele>517</ele>
        <time>2011-04-25T13:37:27.000Z</time>
      </trkpt>
      <trkpt lat="45.49043" lon="4.64241">
        <ele>515</ele>
        <time>2011-04-25T13:37:32.000Z</time>
      </trkpt>
      <trkpt lat="45.49042" lon="4.64242">
        <ele>515.20001220703</ele>
        <time>2011-04-25T13:37:36.000Z</time>
      </trkpt>
      <trkpt lat="45.49038" lon="4.64248">
        <ele>516.79998779297</ele>
        <time>2011-04-25T13:37:43.000Z</time>
      </trkpt>
      <trkpt lat="45.49011" lon="4.64241">
        <ele>517.40002441406</ele>
        <time>2011-04-25T13:37:57.000Z</time>
      </trkpt>
      <trkpt lat="45.49004" lon="4.64229">
        <ele>515.59997558594</ele>
        <time>2011-04-25T13:38:11.000Z</time>
      </trkpt>
      <trkpt lat="45.48987" lon="4.64213">
        <ele>514.40002441406</ele>
        <time>2011-04-25T13:38:25.000Z</time>
      </trkpt>
      <trkpt lat="45.48975" lon="4.64199">
        <ele>513.20001220703</ele>
        <time>2011-04-25T13:38:38.000Z</time>
      </trkpt>
      <trkpt lat="45.48974" lon="4.64198">
        <ele>513.20001220703</ele>
        <time>2011-04-25T13:38:39.000Z</time>
      </trkpt>
      <trkpt lat="45.48966" lon="4.64191">
        <ele>513</ele>
        <time>2011-04-25T13:38:44.000Z</time>
      </trkpt>
      <trkpt lat="45.48954" lon="4.64176">
        <ele>511.60000610352</ele>
        <time>2011-04-25T13:38:59.000Z</time>
      </trkpt>
      <trkpt lat="45.48952" lon="4.64174">
        <ele>511.60000610352</ele>
        <time>2011-04-25T13:39:01.000Z</time>
      </trkpt>
      <trkpt lat="45.48944" lon="4.64167">
        <ele>511.39999389648</ele>
        <time>2011-04-25T13:39:05.000Z</time>
      </trkpt>
      <trkpt lat="45.4894" lon="4.6416">
        <ele>510.79998779297</ele>
        <time>2011-04-25T13:39:18.000Z</time>
      </trkpt>
      <trkpt lat="45.48934" lon="4.64154">
        <ele>510.79998779297</ele>
        <time>2011-04-25T13:39:33.000Z</time>
      </trkpt>
      <trkpt lat="45.48932" lon="4.64151">
        <ele>510.60000610352</ele>
        <time>2011-04-25T13:39:35.000Z</time>
      </trkpt>
      <trkpt lat="45.48912" lon="4.64131">
        <ele>510.20001220703</ele>
        <time>2011-04-25T13:39:49.000Z</time>
      </trkpt>
      <trkpt lat="45.48906" lon="4.64125">
        <ele>509.60000610352</ele>
        <time>2011-04-25T13:40:01.000Z</time>
      </trkpt>
      <trkpt lat="45.48895" lon="4.64115">
        <ele>509</ele>
        <time>2011-04-25T13:40:07.000Z</time>
      </trkpt>
      <trkpt lat="45.4888" lon="4.64097">
        <ele>507</ele>
        <time>2011-04-25T13:40:21.000Z</time>
      </trkpt>
      <trkpt lat="45.48862" lon="4.64075">
        <ele>504.20001220703</ele>
        <time>2011-04-25T13:40:36.000Z</time>
      </trkpt>
      <trkpt lat="45.4885" lon="4.64063">
        <ele>503</ele>
        <time>2011-04-25T13:40:50.000Z</time>
      </trkpt>
      <trkpt lat="45.48847" lon="4.64061">
        <ele>502.79998779297</ele>
        <time>2011-04-25T13:41:02.000Z</time>
      </trkpt>
      <trkpt lat="45.48841" lon="4.64056">
        <ele>502.20001220703</ele>
        <time>2011-04-25T13:41:13.000Z</time>
      </trkpt>
      <trkpt lat="45.48821" lon="4.64043">
        <ele>500</ele>
        <time>2011-04-25T13:41:27.000Z</time>
      </trkpt>
      <trkpt lat="45.48807" lon="4.64036">
        <ele>498</ele>
        <time>2011-04-25T13:41:40.000Z</time>
      </trkpt>
      <trkpt lat="45.48792" lon="4.64029">
        <ele>496.20001220703</ele>
        <time>2011-04-25T13:41:52.000Z</time>
      </trkpt>
      <trkpt lat="45.48778" lon="4.64023">
        <ele>494.60000610352</ele>
        <time>2011-04-25T13:42:06.000Z</time>
      </trkpt>
      <trkpt lat="45.48755" lon="4.64016">
        <ele>492.39999389648</ele>
        <time>2011-04-25T13:42:19.000Z</time>
      </trkpt>
      <trkpt lat="45.48751" lon="4.64013">
        <ele>491.79998779297</ele>
        <time>2011-04-25T13:42:27.000Z</time>
      </trkpt>
      <trkpt lat="45.48743" lon="4.64011">
        <ele>490.79998779297</ele>
        <time>2011-04-25T13:42:34.000Z</time>
      </trkpt>
      <trkpt lat="45.4873" lon="4.64004">
        <ele>488.60000610352</ele>
        <time>2011-04-25T13:42:41.000Z</time>
      </trkpt>
      <trkpt lat="45.4872" lon="4.63998">
        <ele>487.20001220703</ele>
        <time>2011-04-25T13:42:54.000Z</time>
      </trkpt>
      <trkpt lat="45.48719" lon="4.63997">
        <ele>487</ele>
        <time>2011-04-25T13:43:05.000Z</time>
      </trkpt>
      <trkpt lat="45.48721" lon="4.63981">
        <ele>485.60000610352</ele>
        <time>2011-04-25T13:43:12.000Z</time>
      </trkpt>
      <trkpt lat="45.48718" lon="4.63945">
        <ele>482</ele>
        <time>2011-04-25T13:43:29.000Z</time>
      </trkpt>
      <trkpt lat="45.48703" lon="4.63943">
        <ele>481</ele>
        <time>2011-04-25T13:43:42.000Z</time>
      </trkpt>
      <trkpt lat="45.48687" lon="4.63942">
        <ele>480.20001220703</ele>
        <time>2011-04-25T13:43:56.000Z</time>
      </trkpt>
      <trkpt lat="45.48682" lon="4.6394">
        <ele>480</ele>
        <time>2011-04-25T13:44:01.000Z</time>
      </trkpt>
      <trkpt lat="45.48652" lon="4.63938">
        <ele>477.79998779297</ele>
        <time>2011-04-25T13:44:16.000Z</time>
      </trkpt>
      <trkpt lat="45.48641" lon="4.63927">
        <ele>476.39999389648</ele>
        <time>2011-04-25T13:44:28.000Z</time>
      </trkpt>
      <trkpt lat="45.48637" lon="4.63919">
        <ele>475.79998779297</ele>
        <time>2011-04-25T13:44:41.000Z</time>
      </trkpt>
      <trkpt lat="45.48631" lon="4.6391">
        <ele>474.79998779297</ele>
        <time>2011-04-25T13:44:53.000Z</time>
      </trkpt>
      <trkpt lat="45.48628" lon="4.63909">
        <ele>474.60000610352</ele>
        <time>2011-04-25T13:45:08.000Z</time>
      </trkpt>
      <trkpt lat="45.48624" lon="4.63902">
        <ele>473.79998779297</ele>
        <time>2011-04-25T13:45:19.000Z</time>
      </trkpt>
      <trkpt lat="45.48619" lon="4.63897">
        <ele>473.20001220703</ele>
        <time>2011-04-25T13:45:25.000Z</time>
      </trkpt>
      <trkpt lat="45.48616" lon="4.63891">
        <ele>472.60000610352</ele>
        <time>2011-04-25T13:45:39.000Z</time>
      </trkpt>
      <trkpt lat="45.48617" lon="4.6389">
        <ele>472.60000610352</ele>
        <time>2011-04-25T13:45:58.000Z</time>
      </trkpt>
      <trkpt lat="45.48617" lon="4.6389">
        <ele>472.60000610352</ele>
        <time>2011-04-25T13:46:24.000Z</time>
      </trkpt>
      <trkpt lat="45.48614" lon="4.63886">
        <ele>472.20001220703</ele>
        <time>2011-04-25T13:46:46.000Z</time>
      </trkpt>
      <trkpt lat="45.4861" lon="4.63876">
        <ele>471.39999389648</ele>
        <time>2011-04-25T13:47:00.000Z</time>
      </trkpt>
      <trkpt lat="45.48612" lon="4.63878">
        <ele>471.60000610352</ele>
        <time>2011-04-25T13:47:23.000Z</time>
      </trkpt>
      <trkpt lat="45.48613" lon="4.63881">
        <ele>471.79998779297</ele>
        <time>2011-04-25T13:47:28.000Z</time>
      </trkpt>
      <trkpt lat="45.48614" lon="4.63885">
        <ele>472.20001220703</ele>
        <time>2011-04-25T13:47:31.000Z</time>
      </trkpt>
      <trkpt lat="45.48615" lon="4.6389">
        <ele>472.39999389648</ele>
        <time>2011-04-25T13:47:34.000Z</time>
      </trkpt>
      <trkpt lat="45.48613" lon="4.63899">
        <ele>473</ele>
        <time>2011-04-25T13:47:40.000Z</time>
      </trkpt>
      <trkpt lat="45.48608" lon="4.63904">
        <ele>473</ele>
        <time>2011-04-25T13:47:54.000Z</time>
      </trkpt>
      <trkpt lat="45.48608" lon="4.63904">
        <ele>473</ele>
        <time>2011-04-25T13:48:18.000Z</time>
      </trkpt>
      <trkpt lat="45.48606" lon="4.63904">
        <ele>472.79998779297</ele>
        <time>2011-04-25T13:48:25.000Z</time>
      </trkpt>
      <trkpt lat="45.48598" lon="4.6391">
        <ele>472.60000610352</ele>
        <time>2011-04-25T13:48:32.000Z</time>
      </trkpt>
      <trkpt lat="45.48584" lon="4.63928">
        <ele>471.60000610352</ele>
        <time>2011-04-25T13:48:48.000Z</time>
      </trkpt>
      <trkpt lat="45.48578" lon="4.63936">
        <ele>470.60000610352</ele>
        <time>2011-04-25T13:49:02.000Z</time>
      </trkpt>
      <trkpt lat="45.48576" lon="4.63938">
        <ele>470</ele>
        <time>2011-04-25T13:49:06.000Z</time>
      </trkpt>
      <trkpt lat="45.48561" lon="4.63976">
        <ele>466.20001220703</ele>
        <time>2011-04-25T13:49:22.000Z</time>
      </trkpt>
      <trkpt lat="45.48563" lon="4.63997">
        <ele>465.79998779297</ele>
        <time>2011-04-25T13:49:35.000Z</time>
      </trkpt>
      <trkpt lat="45.48563" lon="4.64019">
        <ele>466.20001220703</ele>
        <time>2011-04-25T13:49:48.000Z</time>
      </trkpt>
      <trkpt lat="45.48546" lon="4.6405">
        <ele>464.79998779297</ele>
        <time>2011-04-25T13:50:04.000Z</time>
      </trkpt>
      <trkpt lat="45.4854" lon="4.64055">
        <ele>464.20001220703</ele>
        <time>2011-04-25T13:50:16.000Z</time>
      </trkpt>
      <trkpt lat="45.48539" lon="4.64056">
        <ele>464</ele>
        <time>2011-04-25T13:50:21.000Z</time>
      </trkpt>
      <trkpt lat="45.48526" lon="4.64064">
        <ele>462.60000610352</ele>
        <time>2011-04-25T13:50:31.000Z</time>
      </trkpt>
      <trkpt lat="45.4851" lon="4.64074">
        <ele>461.39999389648</ele>
        <time>2011-04-25T13:50:44.000Z</time>
      </trkpt>
      <trkpt lat="45.48497" lon="4.64078">
        <ele>460.39999389648</ele>
        <time>2011-04-25T13:50:53.000Z</time>
      </trkpt>
      <trkpt lat="45.48494" lon="4.6408">
        <ele>460.39999389648</ele>
        <time>2011-04-25T13:50:57.000Z</time>
      </trkpt>
      <trkpt lat="45.48482" lon="4.64091">
        <ele>461.60000610352</ele>
        <time>2011-04-25T13:51:09.000Z</time>
      </trkpt>
      <trkpt lat="45.48467" lon="4.64103">
        <ele>462.79998779297</ele>
        <time>2011-04-25T13:51:21.000Z</time>
      </trkpt>
      <trkpt lat="45.4846" lon="4.64109">
        <ele>463.39999389648</ele>
        <time>2011-04-25T13:51:26.000Z</time>
      </trkpt>
      <trkpt lat="45.48449" lon="4.64122">
        <ele>465</ele>
        <time>2011-04-25T13:51:39.000Z</time>
      </trkpt>
      <trkpt lat="45.48447" lon="4.64123">
        <ele>465</ele>
        <time>2011-04-25T13:51:41.000Z</time>
      </trkpt>
      <trkpt lat="45.48435" lon="4.64132">
        <ele>465.79998779297</ele>
        <time>2011-04-25T13:51:56.000Z</time>
      </trkpt>
      <trkpt lat="45.48434" lon="4.64132">
        <ele>465.79998779297</ele>
        <time>2011-04-25T13:52:08.000Z</time>
      </trkpt>
      <trkpt lat="45.48421" lon="4.6414">
        <ele>466.39999389648</ele>
        <time>2011-04-25T13:52:16.000Z</time>
      </trkpt>
      <trkpt lat="45.48409" lon="4.64147">
        <ele>466.39999389648</ele>
        <time>2011-04-25T13:52:30.000Z</time>
      </trkpt>
      <trkpt lat="45.48397" lon="4.64155">
        <ele>466.39999389648</ele>
        <time>2011-04-25T13:52:43.000Z</time>
      </trkpt>
      <trkpt lat="45.484" lon="4.64163">
        <ele>467.60000610352</ele>
        <time>2011-04-25T13:52:49.000Z</time>
      </trkpt>
      <trkpt lat="45.48404" lon="4.6417">
        <ele>468.79998779297</ele>
        <time>2011-04-25T13:53:01.000Z</time>
      </trkpt>
      <trkpt lat="45.4841" lon="4.64179">
        <ele>470.60000610352</ele>
        <time>2011-04-25T13:53:09.000Z</time>
      </trkpt>
      <trkpt lat="45.48416" lon="4.64198">
        <ele>473.60000610352</ele>
        <time>2011-04-25T13:53:22.000Z</time>
      </trkpt>
      <trkpt lat="45.48422" lon="4.64212">
        <ele>475.79998779297</ele>
        <time>2011-04-25T13:53:32.000Z</time>
      </trkpt>
      <trkpt lat="45.48426" lon="4.64222">
        <ele>477.39999389648</ele>
        <time>2011-04-25T13:53:41.000Z</time>
      </trkpt>
      <trkpt lat="45.48427" lon="4.64228">
        <ele>478.20001220703</ele>
        <time>2011-04-25T13:53:46.000Z</time>
      </trkpt>
      <trkpt lat="45.48428" lon="4.64233">
        <ele>479</ele>
        <time>2011-04-25T13:53:49.000Z</time>
      </trkpt>
      <trkpt lat="45.48433" lon="4.64248">
        <ele>481.39999389648</ele>
        <time>2011-04-25T13:54:01.000Z</time>
      </trkpt>
      <trkpt lat="45.48434" lon="4.64248">
        <ele>481.39999389648</ele>
        <time>2011-04-25T13:54:05.000Z</time>
      </trkpt>
      <trkpt lat="45.48434" lon="4.64248">
        <ele>481.39999389648</ele>
        <time>2011-04-25T13:54:06.000Z</time>
      </trkpt>
      <trkpt lat="45.48434" lon="4.6425">
        <ele>481.79998779297</ele>
        <time>2011-04-25T13:54:08.000Z</time>
      </trkpt>
      <trkpt lat="45.48441" lon="4.64272">
        <ele>484.79998779297</ele>
        <time>2011-04-25T13:54:22.000Z</time>
      </trkpt>
      <trkpt lat="45.48442" lon="4.64278">
        <ele>485.60000610352</ele>
        <time>2011-04-25T13:54:27.000Z</time>
      </trkpt>
      <trkpt lat="45.48445" lon="4.64288">
        <ele>486.79998779297</ele>
        <time>2011-04-25T13:54:33.000Z</time>
      </trkpt>
      <trkpt lat="45.48447" lon="4.64294">
        <ele>487.79998779297</ele>
        <time>2011-04-25T13:54:38.000Z</time>
      </trkpt>
      <trkpt lat="45.48447" lon="4.64299">
        <ele>488.39999389648</ele>
        <time>2011-04-25T13:54:41.000Z</time>
      </trkpt>
      <trkpt lat="45.48454" lon="4.64319">
        <ele>491.20001220703</ele>
        <time>2011-04-25T13:54:54.000Z</time>
      </trkpt>
      <trkpt lat="45.48455" lon="4.6432">
        <ele>491.60000610352</ele>
        <time>2011-04-25T13:54:56.000Z</time>
      </trkpt>
      <trkpt lat="45.4846" lon="4.64336">
        <ele>494</ele>
        <time>2011-04-25T13:55:09.000Z</time>
      </trkpt>
      <trkpt lat="45.48467" lon="4.6435">
        <ele>496.20001220703</ele>
        <time>2011-04-25T13:55:20.000Z</time>
      </trkpt>
      <trkpt lat="45.48469" lon="4.6436">
        <ele>497.60000610352</ele>
        <time>2011-04-25T13:55:28.000Z</time>
      </trkpt>
      <trkpt lat="45.48475" lon="4.64376">
        <ele>500.20001220703</ele>
        <time>2011-04-25T13:55:41.000Z</time>
      </trkpt>
      <trkpt lat="45.48475" lon="4.64379">
        <ele>500.60000610352</ele>
        <time>2011-04-25T13:55:55.000Z</time>
      </trkpt>
      <trkpt lat="45.48475" lon="4.64379">
        <ele>500.60000610352</ele>
        <time>2011-04-25T13:56:18.000Z</time>
      </trkpt>
      <trkpt lat="45.48469" lon="4.64383">
        <ele>500.20001220703</ele>
        <time>2011-04-25T13:56:28.000Z</time>
      </trkpt>
      <trkpt lat="45.48452" lon="4.64397">
        <ele>499.39999389648</ele>
        <time>2011-04-25T13:56:43.000Z</time>
      </trkpt>
      <trkpt lat="45.48451" lon="4.64396">
        <ele>499.20001220703</ele>
        <time>2011-04-25T13:56:51.000Z</time>
      </trkpt>
      <trkpt lat="45.48434" lon="4.64406">
        <ele>498</ele>
        <time>2011-04-25T13:57:05.000Z</time>
      </trkpt>
      <trkpt lat="45.48418" lon="4.64418">
        <ele>497.20001220703</ele>
        <time>2011-04-25T13:57:18.000Z</time>
      </trkpt>
      <trkpt lat="45.484" lon="4.64431">
        <ele>495</ele>
        <time>2011-04-25T13:57:31.000Z</time>
      </trkpt>
      <trkpt lat="45.48396" lon="4.64435">
        <ele>494.60000610352</ele>
        <time>2011-04-25T13:57:37.000Z</time>
      </trkpt>
      <trkpt lat="45.48379" lon="4.6445">
        <ele>492.39999389648</ele>
        <time>2011-04-25T13:57:51.000Z</time>
      </trkpt>
      <trkpt lat="45.4837" lon="4.64461">
        <ele>491.39999389648</ele>
        <time>2011-04-25T13:58:03.000Z</time>
      </trkpt>
      <trkpt lat="45.48369" lon="4.64462">
        <ele>491.39999389648</ele>
        <time>2011-04-25T13:58:04.000Z</time>
      </trkpt>
      <trkpt lat="45.48356" lon="4.64477">
        <ele>489.79998779297</ele>
        <time>2011-04-25T13:58:16.000Z</time>
      </trkpt>
      <trkpt lat="45.48347" lon="4.64495">
        <ele>488.79998779297</ele>
        <time>2011-04-25T13:58:29.000Z</time>
      </trkpt>
      <trkpt lat="45.48335" lon="4.64515">
        <ele>486.60000610352</ele>
        <time>2011-04-25T13:58:41.000Z</time>
      </trkpt>
      <trkpt lat="45.48332" lon="4.64531">
        <ele>485.39999389648</ele>
        <time>2011-04-25T13:58:53.000Z</time>
      </trkpt>
      <trkpt lat="45.4833" lon="4.64551">
        <ele>484.20001220703</ele>
        <time>2011-04-25T13:59:06.000Z</time>
      </trkpt>
      <trkpt lat="45.4833" lon="4.64552">
        <ele>484.20001220703</ele>
        <time>2011-04-25T13:59:07.000Z</time>
      </trkpt>
      <trkpt lat="45.48332" lon="4.64556">
        <ele>484.39999389648</ele>
        <time>2011-04-25T13:59:11.000Z</time>
      </trkpt>
      <trkpt lat="45.48333" lon="4.64566">
        <ele>484.39999389648</ele>
        <time>2011-04-25T13:59:21.000Z</time>
      </trkpt>
      <trkpt lat="45.48335" lon="4.64575">
        <ele>484.60000610352</ele>
        <time>2011-04-25T13:59:30.000Z</time>
      </trkpt>
      <trkpt lat="45.48343" lon="4.64584">
        <ele>485.60000610352</ele>
        <time>2011-04-25T13:59:44.000Z</time>
      </trkpt>
      <trkpt lat="45.48349" lon="4.64595">
        <ele>487.39999389648</ele>
        <time>2011-04-25T13:59:58.000Z</time>
      </trkpt>
      <trkpt lat="45.48349" lon="4.64604">
        <ele>487.60000610352</ele>
        <time>2011-04-25T14:00:06.000Z</time>
      </trkpt>
      <trkpt lat="45.48344" lon="4.64612">
        <ele>487</ele>
        <time>2011-04-25T14:00:19.000Z</time>
      </trkpt>
      <trkpt lat="45.48333" lon="4.64628">
        <ele>485.60000610352</ele>
        <time>2011-04-25T14:00:33.000Z</time>
      </trkpt>
      <trkpt lat="45.48333" lon="4.64631">
        <ele>485.60000610352</ele>
        <time>2011-04-25T14:00:37.000Z</time>
      </trkpt>
      <trkpt lat="45.48319" lon="4.64657">
        <ele>483</ele>
        <time>2011-04-25T14:00:55.000Z</time>
      </trkpt>
      <trkpt lat="45.48304" lon="4.64682">
        <ele>481.20001220703</ele>
        <time>2011-04-25T14:01:09.000Z</time>
      </trkpt>
      <trkpt lat="45.48298" lon="4.64696">
        <ele>481</ele>
        <time>2011-04-25T14:01:22.000Z</time>
      </trkpt>
      <trkpt lat="45.48285" lon="4.64726">
        <ele>480.20001220703</ele>
        <time>2011-04-25T14:01:35.000Z</time>
      </trkpt>
      <trkpt lat="45.48279" lon="4.6475">
        <ele>481</ele>
        <time>2011-04-25T14:01:48.000Z</time>
      </trkpt>
      <trkpt lat="45.48275" lon="4.64768">
        <ele>480.39999389648</ele>
        <time>2011-04-25T14:02:01.000Z</time>
      </trkpt>
      <trkpt lat="45.48275" lon="4.64773">
        <ele>480.60000610352</ele>
        <time>2011-04-25T14:02:04.000Z</time>
      </trkpt>
      <trkpt lat="45.48273" lon="4.64808">
        <ele>481.20001220703</ele>
        <time>2011-04-25T14:02:19.000Z</time>
      </trkpt>
      <trkpt lat="45.48274" lon="4.6481">
        <ele>481.39999389648</ele>
        <time>2011-04-25T14:02:24.000Z</time>
      </trkpt>
      <trkpt lat="45.48275" lon="4.64817">
        <ele>481.79998779297</ele>
        <time>2011-04-25T14:02:27.000Z</time>
      </trkpt>
      <trkpt lat="45.48278" lon="4.64832">
        <ele>482.79998779297</ele>
        <time>2011-04-25T14:02:31.000Z</time>
      </trkpt>
      <trkpt lat="45.48284" lon="4.64856">
        <ele>483</ele>
        <time>2011-04-25T14:02:45.000Z</time>
      </trkpt>
      <trkpt lat="45.48283" lon="4.64861">
        <ele>482.79998779297</ele>
        <time>2011-04-25T14:02:48.000Z</time>
      </trkpt>
      <trkpt lat="45.48285" lon="4.64874">
        <ele>482.39999389648</ele>
        <time>2011-04-25T14:02:53.000Z</time>
      </trkpt>
      <trkpt lat="45.4829" lon="4.64902">
        <ele>482</ele>
        <time>2011-04-25T14:03:05.000Z</time>
      </trkpt>
      <trkpt lat="45.48286" lon="4.64904">
        <ele>481.20001220703</ele>
        <time>2011-04-25T14:03:11.000Z</time>
      </trkpt>
      <trkpt lat="45.48275" lon="4.64896">
        <ele>479.39999389648</ele>
        <time>2011-04-25T14:03:22.000Z</time>
      </trkpt>
      <trkpt lat="45.48268" lon="4.64891">
        <ele>478.20001220703</ele>
        <time>2011-04-25T14:03:28.000Z</time>
      </trkpt>
      <trkpt lat="45.48265" lon="4.64889">
        <ele>477.79998779297</ele>
        <time>2011-04-25T14:03:31.000Z</time>
      </trkpt>
      <trkpt lat="45.48248" lon="4.64879">
        <ele>474.79998779297</ele>
        <time>2011-04-25T14:03:40.000Z</time>
      </trkpt>
      <trkpt lat="45.48225" lon="4.64873">
        <ele>470.79998779297</ele>
        <time>2011-04-25T14:03:55.000Z</time>
      </trkpt>
      <trkpt lat="45.48203" lon="4.64868">
        <ele>467.20001220703</ele>
        <time>2011-04-25T14:04:10.000Z</time>
      </trkpt>
      <trkpt lat="45.48196" lon="4.64865">
        <ele>466</ele>
        <time>2011-04-25T14:04:24.000Z</time>
      </trkpt>
      <trkpt lat="45.48192" lon="4.64863">
        <ele>465.20001220703</ele>
        <time>2011-04-25T14:04:33.000Z</time>
      </trkpt>
      <trkpt lat="45.48157" lon="4.64846">
        <ele>459.20001220703</ele>
        <time>2011-04-25T14:04:48.000Z</time>
      </trkpt>
      <trkpt lat="45.48149" lon="4.64841">
        <ele>458</ele>
        <time>2011-04-25T14:05:01.000Z</time>
      </trkpt>
      <trkpt lat="45.48147" lon="4.64829">
        <ele>457.60000610352</ele>
        <time>2011-04-25T14:05:09.000Z</time>
      </trkpt>
      <trkpt lat="45.48122" lon="4.64796">
        <ele>451.79998779297</ele>
        <time>2011-04-25T14:05:23.000Z</time>
      </trkpt>
      <trkpt lat="45.48118" lon="4.64795">
        <ele>451.20001220703</ele>
        <time>2011-04-25T14:05:33.000Z</time>
      </trkpt>
      <trkpt lat="45.48104" lon="4.64778">
        <ele>447.60000610352</ele>
        <time>2011-04-25T14:05:46.000Z</time>
      </trkpt>
      <trkpt lat="45.48093" lon="4.64739">
        <ele>442</ele>
        <time>2011-04-25T14:05:58.000Z</time>
      </trkpt>
      <trkpt lat="45.48074" lon="4.64727">
        <ele>437</ele>
        <time>2011-04-25T14:06:10.000Z</time>
      </trkpt>
      <trkpt lat="45.48063" lon="4.64732">
        <ele>435.79998779297</ele>
        <time>2011-04-25T14:06:21.000Z</time>
      </trkpt>
      <trkpt lat="45.48053" lon="4.64748">
        <ele>435.79998779297</ele>
        <time>2011-04-25T14:06:37.000Z</time>
      </trkpt>
      <trkpt lat="45.48045" lon="4.64757">
        <ele>435</ele>
        <time>2011-04-25T14:06:45.000Z</time>
      </trkpt>
      <trkpt lat="45.48031" lon="4.64776">
        <ele>433.60000610352</ele>
        <time>2011-04-25T14:06:55.000Z</time>
      </trkpt>
      <trkpt lat="45.48018" lon="4.64795">
        <ele>432.20001220703</ele>
        <time>2011-04-25T14:07:10.000Z</time>
      </trkpt>
      <trkpt lat="45.48016" lon="4.64803">
        <ele>432.20001220703</ele>
        <time>2011-04-25T14:07:23.000Z</time>
      </trkpt>
      <trkpt lat="45.48014" lon="4.64843">
        <ele>433.79998779297</ele>
        <time>2011-04-25T14:07:35.000Z</time>
      </trkpt>
      <trkpt lat="45.48012" lon="4.64854">
        <ele>433.60000610352</ele>
        <time>2011-04-25T14:07:45.000Z</time>
      </trkpt>
      <trkpt lat="45.48011" lon="4.64851">
        <ele>433.20001220703</ele>
        <time>2011-04-25T14:07:48.000Z</time>
      </trkpt>
      <trkpt lat="45.48005" lon="4.64841">
        <ele>432</ele>
        <time>2011-04-25T14:07:56.000Z</time>
      </trkpt>
      <trkpt lat="45.47997" lon="4.64807">
        <ele>429.60000610352</ele>
        <time>2011-04-25T14:08:10.000Z</time>
      </trkpt>
      <trkpt lat="45.47995" lon="4.64777">
        <ele>427.79998779297</ele>
        <time>2011-04-25T14:08:22.000Z</time>
      </trkpt>
      <trkpt lat="45.47994" lon="4.64769">
        <ele>427.20001220703</ele>
        <time>2011-04-25T14:08:36.000Z</time>
      </trkpt>
      <trkpt lat="45.47987" lon="4.64769">
        <ele>427.39999389648</ele>
        <time>2011-04-25T14:08:40.000Z</time>
      </trkpt>
      <trkpt lat="45.47974" lon="4.64761">
        <ele>427</ele>
        <time>2011-04-25T14:08:55.000Z</time>
      </trkpt>
      <trkpt lat="45.47971" lon="4.64757">
        <ele>426.60000610352</ele>
        <time>2011-04-25T14:08:57.000Z</time>
      </trkpt>
      <trkpt lat="45.47966" lon="4.64753">
        <ele>426.20001220703</ele>
        <time>2011-04-25T14:09:03.000Z</time>
      </trkpt>
      <trkpt lat="45.47959" lon="4.64749">
        <ele>425.79998779297</ele>
        <time>2011-04-25T14:09:11.000Z</time>
      </trkpt>
      <trkpt lat="45.47957" lon="4.64748">
        <ele>425.79998779297</ele>
        <time>2011-04-25T14:09:13.000Z</time>
      </trkpt>
      <trkpt lat="45.47953" lon="4.64745">
        <ele>425.60000610352</ele>
        <time>2011-04-25T14:09:17.000Z</time>
      </trkpt>
      <trkpt lat="45.47934" lon="4.64729">
        <ele>424.60000610352</ele>
        <time>2011-04-25T14:09:33.000Z</time>
      </trkpt>
      <trkpt lat="45.47919" lon="4.64719">
        <ele>424</ele>
        <time>2011-04-25T14:09:47.000Z</time>
      </trkpt>
      <trkpt lat="45.47924" lon="4.64734">
        <ele>425</ele>
        <time>2011-04-25T14:10:00.000Z</time>
      </trkpt>
      <trkpt lat="45.47926" lon="4.6474">
        <ele>425.39999389648</ele>
        <time>2011-04-25T14:10:04.000Z</time>
      </trkpt>
      <trkpt lat="45.47928" lon="4.64748">
        <ele>425.79998779297</ele>
        <time>2011-04-25T14:10:10.000Z</time>
      </trkpt>
      <trkpt lat="45.47931" lon="4.64777">
        <ele>430.20001220703</ele>
        <time>2011-04-25T14:10:27.000Z</time>
      </trkpt>
      <trkpt lat="45.47934" lon="4.6479">
        <ele>432.20001220703</ele>
        <time>2011-04-25T14:10:37.000Z</time>
      </trkpt>
      <trkpt lat="45.47934" lon="4.64796">
        <ele>433</ele>
        <time>2011-04-25T14:10:40.000Z</time>
      </trkpt>
      <trkpt lat="45.47937" lon="4.64818">
        <ele>436.20001220703</ele>
        <time>2011-04-25T14:10:54.000Z</time>
      </trkpt>
      <trkpt lat="45.47939" lon="4.6484">
        <ele>438.79998779297</ele>
        <time>2011-04-25T14:11:08.000Z</time>
      </trkpt>
      <trkpt lat="45.47937" lon="4.64857">
        <ele>440.79998779297</ele>
        <time>2011-04-25T14:11:22.000Z</time>
      </trkpt>
      <trkpt lat="45.47941" lon="4.64877">
        <ele>442</ele>
        <time>2011-04-25T14:11:37.000Z</time>
      </trkpt>
      <trkpt lat="45.47946" lon="4.64897">
        <ele>442.79998779297</ele>
        <time>2011-04-25T14:11:51.000Z</time>
      </trkpt>
      <trkpt lat="45.47949" lon="4.64913">
        <ele>443.60000610352</ele>
        <time>2011-04-25T14:11:58.000Z</time>
      </trkpt>
      <trkpt lat="45.47952" lon="4.64938">
        <ele>445.39999389648</ele>
        <time>2011-04-25T14:12:14.000Z</time>
      </trkpt>
      <trkpt lat="45.47957" lon="4.64957">
        <ele>446.20001220703</ele>
        <time>2011-04-25T14:12:28.000Z</time>
      </trkpt>
      <trkpt lat="45.4796" lon="4.64972">
        <ele>446.79998779297</ele>
        <time>2011-04-25T14:12:42.000Z</time>
      </trkpt>
      <trkpt lat="45.47959" lon="4.64978">
        <ele>447.39999389648</ele>
        <time>2011-04-25T14:12:57.000Z</time>
      </trkpt>
      <trkpt lat="45.47961" lon="4.64977">
        <ele>447.20001220703</ele>
        <time>2011-04-25T14:13:17.000Z</time>
      </trkpt>
      <trkpt lat="45.47961" lon="4.64977">
        <ele>447.20001220703</ele>
        <time>2011-04-25T14:13:39.000Z</time>
      </trkpt>
      <trkpt lat="45.47962" lon="4.64988">
        <ele>448</ele>
        <time>2011-04-25T14:13:47.000Z</time>
      </trkpt>
      <trkpt lat="45.47965" lon="4.65016">
        <ele>450.39999389648</ele>
        <time>2011-04-25T14:14:03.000Z</time>
      </trkpt>
      <trkpt lat="45.47969" lon="4.65034">
        <ele>452.39999389648</ele>
        <time>2011-04-25T14:14:15.000Z</time>
      </trkpt>
      <trkpt lat="45.47972" lon="4.65053">
        <ele>454</ele>
        <time>2011-04-25T14:14:27.000Z</time>
      </trkpt>
      <trkpt lat="45.47974" lon="4.65066">
        <ele>455.39999389648</ele>
        <time>2011-04-25T14:14:37.000Z</time>
      </trkpt>
      <trkpt lat="45.4798" lon="4.65087">
        <ele>457.39999389648</ele>
        <time>2011-04-25T14:14:51.000Z</time>
      </trkpt>
      <trkpt lat="45.47984" lon="4.65099">
        <ele>458</ele>
        <time>2011-04-25T14:15:00.000Z</time>
      </trkpt>
      <trkpt lat="45.4799" lon="4.65118">
        <ele>459</ele>
        <time>2011-04-25T14:15:13.000Z</time>
      </trkpt>
      <trkpt lat="45.47995" lon="4.65129">
        <ele>459.60000610352</ele>
        <time>2011-04-25T14:15:21.000Z</time>
      </trkpt>
      <trkpt lat="45.47996" lon="4.65147">
        <ele>461.79998779297</ele>
        <time>2011-04-25T14:15:31.000Z</time>
      </trkpt>
      <trkpt lat="45.47995" lon="4.6517">
        <ele>465.20001220703</ele>
        <time>2011-04-25T14:15:43.000Z</time>
      </trkpt>
      <trkpt lat="45.47994" lon="4.65197">
        <ele>468.39999389648</ele>
        <time>2011-04-25T14:15:56.000Z</time>
      </trkpt>
      <trkpt lat="45.47994" lon="4.65211">
        <ele>469.79998779297</ele>
        <time>2011-04-25T14:16:05.000Z</time>
      </trkpt>
      <trkpt lat="45.48003" lon="4.65234">
        <ele>470.39999389648</ele>
        <time>2011-04-25T14:16:21.000Z</time>
      </trkpt>
      <trkpt lat="45.48004" lon="4.65235">
        <ele>470.39999389648</ele>
        <time>2011-04-25T14:16:22.000Z</time>
      </trkpt>
      <trkpt lat="45.48009" lon="4.65249">
        <ele>470.79998779297</ele>
        <time>2011-04-25T14:16:29.000Z</time>
      </trkpt>
      <trkpt lat="45.48018" lon="4.65259">
        <ele>470</ele>
        <time>2011-04-25T14:16:39.000Z</time>
      </trkpt>
      <trkpt lat="45.48026" lon="4.65285">
        <ele>471.39999389648</ele>
        <time>2011-04-25T14:16:54.000Z</time>
      </trkpt>
      <trkpt lat="45.48035" lon="4.65309">
        <ele>472.20001220703</ele>
        <time>2011-04-25T14:17:07.000Z</time>
      </trkpt>
      <trkpt lat="45.48044" lon="4.65321">
        <ele>472</ele>
        <time>2011-04-25T14:17:16.000Z</time>
      </trkpt>
      <trkpt lat="45.48056" lon="4.65336">
        <ele>471.60000610352</ele>
        <time>2011-04-25T14:17:30.000Z</time>
      </trkpt>
      <trkpt lat="45.48074" lon="4.65354">
        <ele>470.60000610352</ele>
        <time>2011-04-25T14:17:43.000Z</time>
      </trkpt>
      <trkpt lat="45.48084" lon="4.65362">
        <ele>469.79998779297</ele>
        <time>2011-04-25T14:17:53.000Z</time>
      </trkpt>
      <trkpt lat="45.48094" lon="4.65369">
        <ele>469</ele>
        <time>2011-04-25T14:18:00.000Z</time>
      </trkpt>
      <trkpt lat="45.48101" lon="4.65382">
        <ele>469.60000610352</ele>
        <time>2011-04-25T14:18:11.000Z</time>
      </trkpt>
      <trkpt lat="45.48109" lon="4.65394">
        <ele>469.79998779297</ele>
        <time>2011-04-25T14:18:17.000Z</time>
      </trkpt>
      <trkpt lat="45.48119" lon="4.65418">
        <ele>471.20001220703</ele>
        <time>2011-04-25T14:18:31.000Z</time>
      </trkpt>
      <trkpt lat="45.48125" lon="4.65444">
        <ele>474.20001220703</ele>
        <time>2011-04-25T14:18:45.000Z</time>
      </trkpt>
      <trkpt lat="45.48124" lon="4.65459">
        <ele>477</ele>
        <time>2011-04-25T14:18:57.000Z</time>
      </trkpt>
      <trkpt lat="45.48123" lon="4.6549">
        <ele>482.20001220703</ele>
        <time>2011-04-25T14:19:12.000Z</time>
      </trkpt>
      <trkpt lat="45.48131" lon="4.65506">
        <ele>483.79998779297</ele>
        <time>2011-04-25T14:19:25.000Z</time>
      </trkpt>
      <trkpt lat="45.48148" lon="4.65523">
        <ele>484.39999389648</ele>
        <time>2011-04-25T14:19:41.000Z</time>
      </trkpt>
      <trkpt lat="45.48163" lon="4.65541">
        <ele>485.39999389648</ele>
        <time>2011-04-25T14:19:58.000Z</time>
      </trkpt>
      <trkpt lat="45.48178" lon="4.65559">
        <ele>487</ele>
        <time>2011-04-25T14:20:14.000Z</time>
      </trkpt>
      <trkpt lat="45.48189" lon="4.6557">
        <ele>487.79998779297</ele>
        <time>2011-04-25T14:20:26.000Z</time>
      </trkpt>
      <trkpt lat="45.48208" lon="4.6558">
        <ele>487.79998779297</ele>
        <time>2011-04-25T14:20:41.000Z</time>
      </trkpt>
      <trkpt lat="45.48214" lon="4.65583">
        <ele>487.79998779297</ele>
        <time>2011-04-25T14:20:47.000Z</time>
      </trkpt>
      <trkpt lat="45.48226" lon="4.65587">
        <ele>487.20001220703</ele>
        <time>2011-04-25T14:20:58.000Z</time>
      </trkpt>
      <trkpt lat="45.48238" lon="4.65593">
        <ele>487.20001220703</ele>
        <time>2011-04-25T14:21:08.000Z</time>
      </trkpt>
      <trkpt lat="45.48253" lon="4.65599">
        <ele>486.79998779297</ele>
        <time>2011-04-25T14:21:18.000Z</time>
      </trkpt>
      <trkpt lat="45.48259" lon="4.65603">
        <ele>487.20001220703</ele>
        <time>2011-04-25T14:21:24.000Z</time>
      </trkpt>
      <trkpt lat="45.4828" lon="4.65611">
        <ele>486.79998779297</ele>
        <time>2011-04-25T14:21:38.000Z</time>
      </trkpt>
      <trkpt lat="45.48293" lon="4.65622">
        <ele>488</ele>
        <time>2011-04-25T14:21:49.000Z</time>
      </trkpt>
      <trkpt lat="45.48308" lon="4.65633">
        <ele>489.39999389648</ele>
        <time>2011-04-25T14:22:01.000Z</time>
      </trkpt>
      <trkpt lat="45.48312" lon="4.65636">
        <ele>489.79998779297</ele>
        <time>2011-04-25T14:22:06.000Z</time>
      </trkpt>
      <trkpt lat="45.48328" lon="4.65647">
        <ele>491</ele>
        <time>2011-04-25T14:22:20.000Z</time>
      </trkpt>
      <trkpt lat="45.48331" lon="4.65649">
        <ele>491.20001220703</ele>
        <time>2011-04-25T14:22:24.000Z</time>
      </trkpt>
      <trkpt lat="45.48346" lon="4.65661">
        <ele>492</ele>
        <time>2011-04-25T14:22:37.000Z</time>
      </trkpt>
      <trkpt lat="45.48362" lon="4.65668">
        <ele>491.79998779297</ele>
        <time>2011-04-25T14:22:51.000Z</time>
      </trkpt>
      <trkpt lat="45.48371" lon="4.65674">
        <ele>491.39999389648</ele>
        <time>2011-04-25T14:22:57.000Z</time>
      </trkpt>
      <trkpt lat="45.48377" lon="4.65678">
        <ele>491</ele>
        <time>2011-04-25T14:23:01.000Z</time>
      </trkpt>
      <trkpt lat="45.48395" lon="4.6569">
        <ele>490.39999389648</ele>
        <time>2011-04-25T14:23:15.000Z</time>
      </trkpt>
      <trkpt lat="45.4841" lon="4.65705">
        <ele>490.39999389648</ele>
        <time>2011-04-25T14:23:28.000Z</time>
      </trkpt>
      <trkpt lat="45.48414" lon="4.65729">
        <ele>492.60000610352</ele>
        <time>2011-04-25T14:23:41.000Z</time>
      </trkpt>
      <trkpt lat="45.48416" lon="4.65748">
        <ele>494.60000610352</ele>
        <time>2011-04-25T14:23:53.000Z</time>
      </trkpt>
      <trkpt lat="45.48416" lon="4.65772">
        <ele>495</ele>
        <time>2011-04-25T14:24:06.000Z</time>
      </trkpt>
      <trkpt lat="45.48412" lon="4.65793">
        <ele>495.79998779297</ele>
        <time>2011-04-25T14:24:19.000Z</time>
      </trkpt>
      <trkpt lat="45.48406" lon="4.65818">
        <ele>497.39999389648</ele>
        <time>2011-04-25T14:24:31.000Z</time>
      </trkpt>
      <trkpt lat="45.48405" lon="4.65846">
        <ele>498.39999389648</ele>
        <time>2011-04-25T14:24:45.000Z</time>
      </trkpt>
      <trkpt lat="45.4841" lon="4.65855">
        <ele>497.60000610352</ele>
        <time>2011-04-25T14:24:54.000Z</time>
      </trkpt>
      <trkpt lat="45.48416" lon="4.65867">
        <ele>496.79998779297</ele>
        <time>2011-04-25T14:24:59.000Z</time>
      </trkpt>
      <trkpt lat="45.48424" lon="4.65892">
        <ele>496</ele>
        <time>2011-04-25T14:25:14.000Z</time>
      </trkpt>
      <trkpt lat="45.48433" lon="4.65915">
        <ele>495</ele>
        <time>2011-04-25T14:25:28.000Z</time>
      </trkpt>
      <trkpt lat="45.48444" lon="4.65935">
        <ele>494.20001220703</ele>
        <time>2011-04-25T14:25:42.000Z</time>
      </trkpt>
      <trkpt lat="45.48448" lon="4.65957">
        <ele>494.79998779297</ele>
        <time>2011-04-25T14:25:57.000Z</time>
      </trkpt>
      <trkpt lat="45.48447" lon="4.65962">
        <ele>495.39999389648</ele>
        <time>2011-04-25T14:26:08.000Z</time>
      </trkpt>
      <trkpt lat="45.48445" lon="4.65975">
        <ele>496.79998779297</ele>
        <time>2011-04-25T14:26:15.000Z</time>
      </trkpt>
      <trkpt lat="45.48445" lon="4.6599">
        <ele>498</ele>
        <time>2011-04-25T14:26:19.000Z</time>
      </trkpt>
      <trkpt lat="45.48447" lon="4.66007">
        <ele>499.20001220703</ele>
        <time>2011-04-25T14:26:30.000Z</time>
      </trkpt>
      <trkpt lat="45.48449" lon="4.65997">
        <ele>497.79998779297</ele>
        <time>2011-04-25T14:26:35.000Z</time>
      </trkpt>
      <trkpt lat="45.48465" lon="4.66">
        <ele>495.20001220703</ele>
        <time>2011-04-25T14:26:45.000Z</time>
      </trkpt>
      <trkpt lat="45.48482" lon="4.66007">
        <ele>493</ele>
        <time>2011-04-25T14:26:57.000Z</time>
      </trkpt>
      <trkpt lat="45.485" lon="4.66016">
        <ele>490.79998779297</ele>
        <time>2011-04-25T14:27:13.000Z</time>
      </trkpt>
      <trkpt lat="45.48513" lon="4.66024">
        <ele>489.20001220703</ele>
        <time>2011-04-25T14:27:25.000Z</time>
      </trkpt>
      <trkpt lat="45.48515" lon="4.66027">
        <ele>489.39999389648</ele>
        <time>2011-04-25T14:27:29.000Z</time>
      </trkpt>
      <trkpt lat="45.48527" lon="4.66042">
        <ele>488.39999389648</ele>
        <time>2011-04-25T14:27:42.000Z</time>
      </trkpt>
      <trkpt lat="45.48531" lon="4.66048">
        <ele>488.20001220703</ele>
        <time>2011-04-25T14:27:46.000Z</time>
      </trkpt>
      <trkpt lat="45.4854" lon="4.6606">
        <ele>487.60000610352</ele>
        <time>2011-04-25T14:27:57.000Z</time>
      </trkpt>
      <trkpt lat="45.48545" lon="4.66076">
        <ele>488</ele>
        <time>2011-04-25T14:28:09.000Z</time>
      </trkpt>
      <trkpt lat="45.48553" lon="4.66091">
        <ele>487.39999389648</ele>
        <time>2011-04-25T14:28:18.000Z</time>
      </trkpt>
      <trkpt lat="45.4857" lon="4.66119">
        <ele>485.39999389648</ele>
        <time>2011-04-25T14:28:32.000Z</time>
      </trkpt>
      <trkpt lat="45.4858" lon="4.66132">
        <ele>484.20001220703</ele>
        <time>2011-04-25T14:28:44.000Z</time>
      </trkpt>
      <trkpt lat="45.48584" lon="4.6614">
        <ele>483.79998779297</ele>
        <time>2011-04-25T14:28:58.000Z</time>
      </trkpt>
      <trkpt lat="45.48584" lon="4.6614">
        <ele>483.79998779297</ele>
        <time>2011-04-25T14:29:30.000Z</time>
      </trkpt>
      <trkpt lat="45.48584" lon="4.66138">
        <ele>483.79998779297</ele>
        <time>2011-04-25T14:30:07.000Z</time>
      </trkpt>
      <trkpt lat="45.48591" lon="4.66151">
        <ele>483.60000610352</ele>
        <time>2011-04-25T14:30:19.000Z</time>
      </trkpt>
      <trkpt lat="45.48598" lon="4.66161">
        <ele>483.20001220703</ele>
        <time>2011-04-25T14:30:30.000Z</time>
      </trkpt>
      <trkpt lat="45.48599" lon="4.66163">
        <ele>483</ele>
        <time>2011-04-25T14:30:32.000Z</time>
      </trkpt>
      <trkpt lat="45.48615" lon="4.66189">
        <ele>480.60000610352</ele>
        <time>2011-04-25T14:30:47.000Z</time>
      </trkpt>
      <trkpt lat="45.48618" lon="4.66193">
        <ele>480.20001220703</ele>
        <time>2011-04-25T14:30:54.000Z</time>
      </trkpt>
      <trkpt lat="45.48623" lon="4.66223">
        <ele>479.79998779297</ele>
        <time>2011-04-25T14:31:11.000Z</time>
      </trkpt>
      <trkpt lat="45.48611" lon="4.6624">
        <ele>480.60000610352</ele>
        <time>2011-04-25T14:31:26.000Z</time>
      </trkpt>
      <trkpt lat="45.48604" lon="4.66245">
        <ele>481</ele>
        <time>2011-04-25T14:31:38.000Z</time>
      </trkpt>
      <trkpt lat="45.48598" lon="4.66248">
        <ele>481.20001220703</ele>
        <time>2011-04-25T14:31:45.000Z</time>
      </trkpt>
      <trkpt lat="45.48593" lon="4.66253">
        <ele>481.39999389648</ele>
        <time>2011-04-25T14:31:48.000Z</time>
      </trkpt>
      <trkpt lat="45.48595" lon="4.66262">
        <ele>481.20001220703</ele>
        <time>2011-04-25T14:31:54.000Z</time>
      </trkpt>
      <trkpt lat="45.48607" lon="4.66263">
        <ele>481</ele>
        <time>2011-04-25T14:32:09.000Z</time>
      </trkpt>
      <trkpt lat="45.48611" lon="4.66262">
        <ele>480.79998779297</ele>
        <time>2011-04-25T14:32:12.000Z</time>
      </trkpt>
      <trkpt lat="45.48612" lon="4.66262">
        <ele>480.79998779297</ele>
        <time>2011-04-25T14:32:17.000Z</time>
      </trkpt>
      <trkpt lat="45.48621" lon="4.6626">
        <ele>480.60000610352</ele>
        <time>2011-04-25T14:32:22.000Z</time>
      </trkpt>
      <trkpt lat="45.48625" lon="4.66259">
        <ele>480.39999389648</ele>
        <time>2011-04-25T14:32:41.000Z</time>
      </trkpt>
      <trkpt lat="45.48626" lon="4.66259">
        <ele>480.39999389648</ele>
        <time>2011-04-25T14:32:57.000Z</time>
      </trkpt>
      <trkpt lat="45.48629" lon="4.6626">
        <ele>480.39999389648</ele>
        <time>2011-04-25T14:32:59.000Z</time>
      </trkpt>
      <trkpt lat="45.48632" lon="4.66263">
        <ele>480.60000610352</ele>
        <time>2011-04-25T14:33:02.000Z</time>
      </trkpt>
      <trkpt lat="45.48644" lon="4.66264">
        <ele>480.60000610352</ele>
        <time>2011-04-25T14:33:11.000Z</time>
      </trkpt>
      <trkpt lat="45.48661" lon="4.66257">
        <ele>479.20001220703</ele>
        <time>2011-04-25T14:33:25.000Z</time>
      </trkpt>
      <trkpt lat="45.48673" lon="4.66248">
        <ele>478.39999389648</ele>
        <time>2011-04-25T14:33:38.000Z</time>
      </trkpt>
      <trkpt lat="45.48686" lon="4.66234">
        <ele>479.20001220703</ele>
        <time>2011-04-25T14:33:54.000Z</time>
      </trkpt>
      <trkpt lat="45.48687" lon="4.66233">
        <ele>479.20001220703</ele>
        <time>2011-04-25T14:33:55.000Z</time>
      </trkpt>
      <trkpt lat="45.48702" lon="4.6622">
        <ele>480.39999389648</ele>
        <time>2011-04-25T14:34:10.000Z</time>
      </trkpt>
      <trkpt lat="45.48702" lon="4.6622">
        <ele>480.39999389648</ele>
        <time>2011-04-25T14:34:11.000Z</time>
      </trkpt>
      <trkpt lat="45.4871" lon="4.66217">
        <ele>481</ele>
        <time>2011-04-25T14:34:23.000Z</time>
      </trkpt>
      <trkpt lat="45.48719" lon="4.6622">
        <ele>482.39999389648</ele>
        <time>2011-04-25T14:34:37.000Z</time>
      </trkpt>
      <trkpt lat="45.48732" lon="4.66226">
        <ele>484.39999389648</ele>
        <time>2011-04-25T14:34:51.000Z</time>
      </trkpt>
      <trkpt lat="45.48741" lon="4.66233">
        <ele>486</ele>
        <time>2011-04-25T14:35:04.000Z</time>
      </trkpt>
      <trkpt lat="45.48747" lon="4.66239">
        <ele>487</ele>
        <time>2011-04-25T14:35:11.000Z</time>
      </trkpt>
      <trkpt lat="45.4876" lon="4.6625">
        <ele>488.79998779297</ele>
        <time>2011-04-25T14:35:25.000Z</time>
      </trkpt>
      <trkpt lat="45.48764" lon="4.66256">
        <ele>490.20001220703</ele>
        <time>2011-04-25T14:35:32.000Z</time>
      </trkpt>
      <trkpt lat="45.48782" lon="4.66268">
        <ele>493.79998779297</ele>
        <time>2011-04-25T14:35:49.000Z</time>
      </trkpt>
      <trkpt lat="45.48783" lon="4.66269">
        <ele>494</ele>
        <time>2011-04-25T14:35:50.000Z</time>
      </trkpt>
      <trkpt lat="45.48798" lon="4.66283">
        <ele>497.20001220703</ele>
        <time>2011-04-25T14:36:05.000Z</time>
      </trkpt>
      <trkpt lat="45.48815" lon="4.66289">
        <ele>499.20001220703</ele>
        <time>2011-04-25T14:36:20.000Z</time>
      </trkpt>
      <trkpt lat="45.48831" lon="4.66295">
        <ele>501.20001220703</ele>
        <time>2011-04-25T14:36:32.000Z</time>
      </trkpt>
      <trkpt lat="45.4885" lon="4.66303">
        <ele>503.60000610352</ele>
        <time>2011-04-25T14:36:47.000Z</time>
      </trkpt>
      <trkpt lat="45.48864" lon="4.66308">
        <ele>505.20001220703</ele>
        <time>2011-04-25T14:37:01.000Z</time>
      </trkpt>
      <trkpt lat="45.48867" lon="4.66308">
        <ele>505.39999389648</ele>
        <time>2011-04-25T14:37:04.000Z</time>
      </trkpt>
      <trkpt lat="45.48871" lon="4.66307">
        <ele>505.60000610352</ele>
        <time>2011-04-25T14:37:07.000Z</time>
      </trkpt>
      <trkpt lat="45.4889" lon="4.66308">
        <ele>507</ele>
        <time>2011-04-25T14:37:21.000Z</time>
      </trkpt>
      <trkpt lat="45.48909" lon="4.66308">
        <ele>508.60000610352</ele>
        <time>2011-04-25T14:37:35.000Z</time>
      </trkpt>
      <trkpt lat="45.4893" lon="4.66303">
        <ele>509.39999389648</ele>
        <time>2011-04-25T14:37:49.000Z</time>
      </trkpt>
      <trkpt lat="45.48944" lon="4.66306">
        <ele>510.20001220703</ele>
        <time>2011-04-25T14:38:02.000Z</time>
      </trkpt>
      <trkpt lat="45.48963" lon="4.66304">
        <ele>511</ele>
        <time>2011-04-25T14:38:16.000Z</time>
      </trkpt>
      <trkpt lat="45.48975" lon="4.66304">
        <ele>511.60000610352</ele>
        <time>2011-04-25T14:38:25.000Z</time>
      </trkpt>
      <trkpt lat="45.48992" lon="4.66305">
        <ele>512.59997558594</ele>
        <time>2011-04-25T14:38:39.000Z</time>
      </trkpt>
      <trkpt lat="45.49012" lon="4.66312">
        <ele>514.40002441406</ele>
        <time>2011-04-25T14:38:55.000Z</time>
      </trkpt>
      <trkpt lat="45.49023" lon="4.66315">
        <ele>515.59997558594</ele>
        <time>2011-04-25T14:39:05.000Z</time>
      </trkpt>
      <trkpt lat="45.49038" lon="4.66326">
        <ele>517.20001220703</ele>
        <time>2011-04-25T14:39:19.000Z</time>
      </trkpt>
      <trkpt lat="45.49048" lon="4.6634">
        <ele>519.20001220703</ele>
        <time>2011-04-25T14:39:32.000Z</time>
      </trkpt>
      <trkpt lat="45.49058" lon="4.66351">
        <ele>521.20001220703</ele>
        <time>2011-04-25T14:39:44.000Z</time>
      </trkpt>
      <trkpt lat="45.49073" lon="4.66365">
        <ele>523.40002441406</ele>
        <time>2011-04-25T14:39:58.000Z</time>
      </trkpt>
      <trkpt lat="45.49075" lon="4.66366">
        <ele>523.59997558594</ele>
        <time>2011-04-25T14:40:08.000Z</time>
      </trkpt>
      <trkpt lat="45.49101" lon="4.66373">
        <ele>524.59997558594</ele>
        <time>2011-04-25T14:40:22.000Z</time>
      </trkpt>
      <trkpt lat="45.4911" lon="4.66376">
        <ele>524.79998779297</ele>
        <time>2011-04-25T14:40:33.000Z</time>
      </trkpt>
      <trkpt lat="45.49133" lon="4.66381">
        <ele>525</ele>
        <time>2011-04-25T14:40:47.000Z</time>
      </trkpt>
      <trkpt lat="45.49137" lon="4.66383">
        <ele>525.20001220703</ele>
        <time>2011-04-25T14:40:53.000Z</time>
      </trkpt>
      <trkpt lat="45.49158" lon="4.66389">
        <ele>525.40002441406</ele>
        <time>2011-04-25T14:41:07.000Z</time>
      </trkpt>
      <trkpt lat="45.49176" lon="4.66394">
        <ele>525.59997558594</ele>
        <time>2011-04-25T14:41:19.000Z</time>
      </trkpt>
      <trkpt lat="45.49179" lon="4.66394">
        <ele>525.59997558594</ele>
        <time>2011-04-25T14:41:23.000Z</time>
      </trkpt>
      <trkpt lat="45.4919" lon="4.66402">
        <ele>526</ele>
        <time>2011-04-25T14:41:33.000Z</time>
      </trkpt>
      <trkpt lat="45.49199" lon="4.66402">
        <ele>526</ele>
        <time>2011-04-25T14:41:40.000Z</time>
      </trkpt>
      <trkpt lat="45.49206" lon="4.66407">
        <ele>526.20001220703</ele>
        <time>2011-04-25T14:41:46.000Z</time>
      </trkpt>
      <trkpt lat="45.49218" lon="4.66406">
        <ele>526</ele>
        <time>2011-04-25T14:41:55.000Z</time>
      </trkpt>
      <trkpt lat="45.49229" lon="4.6641">
        <ele>526</ele>
        <time>2011-04-25T14:42:02.000Z</time>
      </trkpt>
      <trkpt lat="45.4923" lon="4.66418">
        <ele>526.20001220703</ele>
        <time>2011-04-25T14:42:19.000Z</time>
      </trkpt>
      <trkpt lat="45.4923" lon="4.66418">
        <ele>526.20001220703</ele>
        <time>2011-04-25T14:42:20.000Z</time>
      </trkpt>
      <trkpt lat="45.4923" lon="4.66418">
        <ele>526.20001220703</ele>
        <time>2011-04-25T14:42:21.000Z</time>
      </trkpt>
      <trkpt lat="45.4923" lon="4.66418">
        <ele>526.20001220703</ele>
        <time>2011-04-25T14:42:28.000Z</time>
      </trkpt>
      <trkpt lat="45.4923" lon="4.66418">
        <ele>526.20001220703</ele>
        <time>2011-04-25T14:42:29.000Z</time>
      </trkpt>
      <trkpt lat="45.4923" lon="4.66418">
        <ele>526.20001220703</ele>
        <time>2011-04-25T14:42:58.000Z</time>
      </trkpt>
      <trkpt lat="45.4923" lon="4.66417">
        <ele>526.20001220703</ele>
        <time>2011-04-25T14:43:34.000Z</time>
      </trkpt>
    </trkseg>
  </trk>
</gpx>